Wetterdaten: Freitag, 26.05.2023
Datum Zeit Temp. Aussen Temp. o. S. Temp +5cm Feuchte Auss Luftdruck Regen Sonnenschein Regendauer Solar Windben Empfang
26.05.2023 00:00 13,3 C 12,2 C 8,9 C 76 % 1027,8 hPa 0,0 l/m 0 min 0 min 0 W/m 9,7 km/h (2 Bft) 98,11 %
26.05.2023 00:02 13,3 C 12,2 C 8,9 C 76 % 1027,8 hPa 0,0 l/m 0 min 0 min 0 W/m 9,7 km/h (2 Bft) 97,22 %
26.05.2023 00:04 13,3 C 12,2 C 8,9 C 76 % 1027,8 hPa 0,0 l/m 0 min 0 min 0 W/m 6,4 km/h (2 Bft) 97,83 %
26.05.2023 00:07 13,2 C 12,2 C 8,9 C 76 % 1027,9 hPa 0,0 l/m 0 min 0 min 0 W/m 12,9 km/h (3 Bft) 97,83 %
26.05.2023 00:08 13,2 C 12,2 C 8,9 C 76 % 1027,9 hPa 0,0 l/m 0 min 0 min 0 W/m 12,9 km/h (3 Bft) 97,03 %
26.05.2023 00:12 13,2 C 12,2 C 8,9 C 76 % 1028,0 hPa 0,0 l/m 0 min 0 min 0 W/m 6,4 km/h (2 Bft) 100,00 %
26.05.2023 00:14 13,1 C 12,2 C 8,9 C 76 % 1027,9 hPa 0,0 l/m 0 min 0 min 0 W/m 16,1 km/h (3 Bft) 97,83 %
26.05.2023 00:16 13,1 C 12,2 C 8,9 C 76 % 1027,9 hPa 0,0 l/m 0 min 0 min 0 W/m 6,4 km/h (2 Bft) 95,12 %
26.05.2023 00:18 13,1 C 12,2 C 8,9 C 76 % 1028,0 hPa 0,0 l/m 0 min 0 min 0 W/m 9,7 km/h (2 Bft) 97,83 %
26.05.2023 00:20 13,0 C 11,7 C 8,3 C 77 % 1028,0 hPa 0,0 l/m 0 min 0 min 0 W/m 6,4 km/h (2 Bft) 95,74 %
26.05.2023 00:22 12,9 C 11,7 C 8,3 C 77 % 1028,0 hPa 0,0 l/m 0 min 0 min 0 W/m 9,7 km/h (2 Bft) 97,87 %
26.05.2023 00:24 12,9 C 11,7 C 8,3 C 77 % 1028,0 hPa 0,0 l/m 0 min 0 min 0 W/m 9,7 km/h (2 Bft) 97,87 %
26.05.2023 00:26 12,9 C 11,7 C 8,3 C 77 % 1028,0 hPa 0,0 l/m 0 min 0 min 0 W/m 12,9 km/h (3 Bft) 97,87 %
26.05.2023 00:28 12,8 C 11,7 C 8,3 C 77 % 1028,0 hPa 0,0 l/m 0 min 0 min 0 W/m 6,4 km/h (2 Bft) 98,15 %
26.05.2023 00:30 12,8 C 11,7 C 8,3 C 77 % 1028,1 hPa 0,0 l/m 0 min 0 min 0 W/m 6,4 km/h (2 Bft) 95,00 %
26.05.2023 00:32 12,8 C 11,7 C 8,3 C 77 % 1028,1 hPa 0,0 l/m 0 min 0 min 0 W/m 6,4 km/h (2 Bft) 100,00 %
26.05.2023 00:34 12,7 C 11,7 C 8,3 C 77 % 1028,1 hPa 0,0 l/m 0 min 0 min 0 W/m 9,7 km/h (2 Bft) 100,00 %
26.05.2023 00:36 12,7 C 11,7 C 8,3 C 77 % 1028,1 hPa 0,0 l/m 0 min 0 min 0 W/m 6,4 km/h (2 Bft) 100,00 %
26.05.2023 00:38 12,7 C 11,7 C 8,3 C 77 % 1028,1 hPa 0,0 l/m 0 min 0 min 0 W/m 6,4 km/h (2 Bft) 100,00 %
26.05.2023 00:40 12,6 C 11,7 C 8,3 C 77 % 1028,1 hPa 0,0 l/m 0 min 0 min 0 W/m 9,7 km/h (2 Bft) 100,00 %
26.05.2023 00:42 12,6 C 11,7 C 8,3 C 78 % 1028,1 hPa 0,0 l/m 0 min 0 min 0 W/m 9,7 km/h (2 Bft) 100,00 %
26.05.2023 00:44 12,6 C 11,7 C 8,3 C 78 % 1028,2 hPa 0,0 l/m 0 min 0 min 0 W/m 6,4 km/h (2 Bft) 100,00 %
26.05.2023 00:46 12,5 C 11,7 C 8,3 C 78 % 1028,2 hPa 0,0 l/m 0 min 0 min 0 W/m 6,4 km/h (2 Bft) 100,00 %
26.05.2023 00:48 12,5 C 11,7 C 8,3 C 78 % 1028,2 hPa 0,0 l/m 0 min 0 min 0 W/m 6,4 km/h (2 Bft) 97,87 %
26.05.2023 00:50 12,4 C 11,7 C 8,3 C 78 % 1028,2 hPa 0,0 l/m 0 min 0 min 0 W/m 6,4 km/h (2 Bft) 100,00 %
26.05.2023 00:52 12,4 C 11,7 C 8,3 C 78 % 1028,2 hPa 0,0 l/m 0 min 0 min 0 W/m 12,9 km/h (3 Bft) 100,00 %
26.05.2023 00:54 12,4 C 11,7 C 8,3 C 78 % 1028,2 hPa 0,0 l/m 0 min 0 min 0 W/m 6,4 km/h (2 Bft) 95,74 %
26.05.2023 00:56 12,3 C 11,7 C 7,8 C 78 % 1028,2 hPa 0,0 l/m 0 min 0 min 0 W/m 9,7 km/h (2 Bft) 97,87 %
26.05.2023 00:58 12,3 C 11,7 C 7,8 C 78 % 1028,3 hPa 0,0 l/m 0 min 0 min 0 W/m 9,7 km/h (2 Bft) 95,65 %
26.05.2023 01:00 12,3 C 11,1 C 7,8 C 78 % 1028,3 hPa 0,0 l/m 0 min 0 min 0 W/m 9,7 km/h (2 Bft) 97,87 %
26.05.2023 01:02 12,3 C 11,7 C 7,8 C 78 % 1028,3 hPa 0,0 l/m 0 min 0 min 0 W/m 12,9 km/h (3 Bft) 97,87 %
26.05.2023 01:04 12,2 C 11,1 C 7,8 C 79 % 1028,2 hPa 0,0 l/m 0 min 0 min 0 W/m 12,9 km/h (3 Bft) 93,75 %
26.05.2023 01:06 12,2 C 11,1 C 7,8 C 79 % 1028,2 hPa 0,0 l/m 0 min 0 min 0 W/m 12,9 km/h (3 Bft) 93,62 %
26.05.2023 01:08 12,2 C 11,1 C 7,8 C 79 % 1028,2 hPa 0,0 l/m 0 min 0 min 0 W/m 3,2 km/h (1 Bft) 95,74 %
26.05.2023 01:10 12,2 C 11,1 C 7,8 C 79 % 1028,2 hPa 0,0 l/m 0 min 0 min 0 W/m 6,4 km/h (2 Bft) 95,74 %
26.05.2023 01:12 12,1 C 11,1 C 7,8 C 79 % 1028,2 hPa 0,0 l/m 0 min 0 min 0 W/m 6,4 km/h (2 Bft) 95,65 %
26.05.2023 01:14 12,1 C 11,1 C 7,8 C 79 % 1028,2 hPa 0,0 l/m 0 min 0 min 0 W/m 6,4 km/h (2 Bft) 95,74 %
26.05.2023 01:16 12,1 C 11,1 C 7,8 C 79 % 1028,2 hPa 0,0 l/m 0 min 0 min 0 W/m 3,2 km/h (1 Bft) 95,74 %
26.05.2023 01:18 12,1 C 11,1 C 7,8 C 79 % 1028,2 hPa 0,0 l/m 0 min 0 min 0 W/m 3,2 km/h (1 Bft) 91,49 %
26.05.2023 01:20 12,0 C 11,1 C 7,8 C 79 % 1028,2 hPa 0,0 l/m 0 min 0 min 0 W/m 9,7 km/h (2 Bft) 93,62 %
26.05.2023 01:22 12,0 C 11,1 C 7,8 C 79 % 1028,2 hPa 0,0 l/m 0 min 0 min 0 W/m 9,7 km/h (2 Bft) 95,74 %
26.05.2023 01:24 11,9 C 10,6 C 7,8 C 79 % 1028,2 hPa 0,0 l/m 0 min 0 min 0 W/m 6,4 km/h (2 Bft) 95,56 %
26.05.2023 01:26 11,9 C 10,6 C 7,8 C 80 % 1028,2 hPa 0,0 l/m 0 min 0 min 0 W/m 6,4 km/h (2 Bft) 55,56 %
26.05.2023 01:28 11,9 C 10,6 C 7,8 C 80 % 1028,2 hPa 0,0 l/m 0 min 0 min 0 W/m 6,4 km/h (2 Bft) 95,74 %
26.05.2023 01:30 11,8 C 10,6 C 7,8 C 80 % 1028,3 hPa 0,0 l/m 0 min 0 min 0 W/m 9,7 km/h (2 Bft) 95,74 %
26.05.2023 01:32 11,8 C 10,6 C 7,8 C 80 % 1028,2 hPa 0,0 l/m 0 min 0 min 0 W/m 6,4 km/h (2 Bft) 93,62 %
26.05.2023 01:34 11,8 C 10,6 C 7,2 C 80 % 1028,2 hPa 0,0 l/m 0 min 0 min 0 W/m 6,4 km/h (2 Bft) 97,87 %
26.05.2023 01:36 11,7 C 10,6 C 7,8 C 80 % 1028,2 hPa 0,0 l/m 0 min 0 min 0 W/m 9,7 km/h (2 Bft) 97,87 %
26.05.2023 01:38 11,7 C 10,6 C 7,8 C 80 % 1028,2 hPa 0,0 l/m 0 min 0 min 0 W/m 6,4 km/h (2 Bft) 95,65 %
26.05.2023 01:40 11,7 C 10,6 C 7,2 C 80 % 1028,2 hPa 0,0 l/m 0 min 0 min 0 W/m 3,2 km/h (1 Bft) 97,87 %
26.05.2023 01:42 11,7 C 10,6 C 7,2 C 80 % 1028,2 hPa 0,0 l/m 0 min 0 min 0 W/m 6,4 km/h (2 Bft) 95,74 %
26.05.2023 01:44 11,6 C 10,6 C 7,2 C 80 % 1028,3 hPa 0,0 l/m 0 min 0 min 0 W/m 6,4 km/h (2 Bft) 97,87 %
26.05.2023 01:46 11,6 C 10,6 C 7,2 C 80 % 1028,2 hPa 0,0 l/m 0 min 0 min 0 W/m 6,4 km/h (2 Bft) 95,74 %
26.05.2023 01:48 11,6 C 10,6 C 7,2 C 80 % 1028,2 hPa 0,0 l/m 0 min 0 min 0 W/m 3,2 km/h (1 Bft) 97,92 %
26.05.2023 01:50 11,6 C 10,6 C 7,2 C 80 % 1028,2 hPa 0,0 l/m 0 min 0 min 0 W/m 3,2 km/h (1 Bft) 97,87 %
26.05.2023 01:52 11,6 C 10,6 C 7,2 C 80 % 1028,2 hPa 0,0 l/m 0 min 0 min 0 W/m 6,4 km/h (2 Bft) 97,83 %
26.05.2023 01:54 11,5 C 10,6 C 7,2 C 81 % 1028,2 hPa 0,0 l/m 0 min 0 min 0 W/m 6,4 km/h (2 Bft) 97,87 %
26.05.2023 01:56 11,4 C 10,6 C 7,2 C 81 % 1028,2 hPa 0,0 l/m 0 min 0 min 0 W/m 12,9 km/h (3 Bft) 97,87 %
26.05.2023 01:58 11,4 C 10,6 C 7,2 C 81 % 1028,3 hPa 0,0 l/m 0 min 0 min 0 W/m 3,2 km/h (1 Bft) 100,00 %
26.05.2023 02:00 11,4 C 10,6 C 7,2 C 81 % 1028,3 hPa 0,0 l/m 0 min 0 min 0 W/m 6,4 km/h (2 Bft) 97,87 %
26.05.2023 02:02 11,3 C 10,6 C 7,2 C 81 % 1028,3 hPa 0,0 l/m 0 min 0 min 0 W/m 6,4 km/h (2 Bft) 100,00 %
26.05.2023 02:04 11,3 C 10,6 C 7,2 C 81 % 1028,3 hPa 0,0 l/m 0 min 0 min 0 W/m 6,4 km/h (2 Bft) 97,87 %
26.05.2023 02:06 11,3 C 10,6 C 7,2 C 81 % 1028,3 hPa 0,0 l/m 0 min 0 min 0 W/m 3,2 km/h (1 Bft) 98,28 %
26.05.2023 02:08 11,3 C 10,6 C 7,2 C 81 % 1028,3 hPa 0,0 l/m 0 min 0 min 0 W/m 6,4 km/h (2 Bft) 100,00 %
26.05.2023 02:10 11,2 C 10,0 C 7,2 C 81 % 1028,3 hPa 0,0 l/m 0 min 0 min 0 W/m 12,9 km/h (3 Bft) 97,87 %
26.05.2023 02:12 11,2 C 10,0 C 7,2 C 81 % 1028,3 hPa 0,0 l/m 0 min 0 min 0 W/m 6,4 km/h (2 Bft) 97,87 %
26.05.2023 02:14 11,2 C 10,0 C 7,2 C 81 % 1028,3 hPa 0,0 l/m 0 min 0 min 0 W/m 6,4 km/h (2 Bft) 95,74 %
26.05.2023 02:16 11,2 C 10,0 C 7,2 C 81 % 1028,3 hPa 0,0 l/m 0 min 0 min 0 W/m 3,2 km/h (1 Bft) 97,92 %
26.05.2023 02:18 11,1 C 10,0 C 6,7 C 81 % 1028,3 hPa 0,0 l/m 0 min 0 min 0 W/m 6,4 km/h (2 Bft) 97,87 %
26.05.2023 02:20 11,1 C 10,0 C 7,2 C 81 % 1028,4 hPa 0,0 l/m 0 min 0 min 0 W/m 6,4 km/h (2 Bft) 97,83 %
26.05.2023 02:22 11,1 C 10,0 C 6,7 C 81 % 1028,4 hPa 0,0 l/m 0 min 0 min 0 W/m 6,4 km/h (2 Bft) 97,87 %
26.05.2023 02:24 11,1 C 10,0 C 6,7 C 82 % 1028,4 hPa 0,0 l/m 0 min 0 min 0 W/m 12,9 km/h (3 Bft) 95,83 %
26.05.2023 02:26 11,0 C 10,0 C 6,7 C 82 % 1028,4 hPa 0,0 l/m 0 min 0 min 0 W/m 6,4 km/h (2 Bft) 95,74 %
26.05.2023 02:28 11,0 C 10,0 C 6,7 C 82 % 1028,4 hPa 0,0 l/m 0 min 0 min 0 W/m 6,4 km/h (2 Bft) 97,30 %
26.05.2023 02:30 11,0 C 10,0 C 6,7 C 82 % 1028,4 hPa 0,0 l/m 0 min 0 min 0 W/m 3,2 km/h (1 Bft) 95,74 %
26.05.2023 02:32 10,9 C 10,0 C 6,7 C 82 % 1028,4 hPa 0,0 l/m 0 min 0 min 0 W/m 3,2 km/h (1 Bft) 97,87 %
26.05.2023 02:34 10,9 C 10,0 C 6,7 C 82 % 1028,4 hPa 0,0 l/m 0 min 0 min 0 W/m 6,4 km/h (2 Bft) 95,74 %
26.05.2023 02:36 10,9 C 10,0 C 6,7 C 82 % 1028,5 hPa 0,0 l/m 0 min 0 min 0 W/m 3,2 km/h (1 Bft) 95,74 %
26.05.2023 02:38 10,9 C 10,0 C 6,7 C 82 % 1028,5 hPa 0,0 l/m 0 min 0 min 0 W/m 3,2 km/h (1 Bft) 95,65 %
26.05.2023 02:40 10,8 C 10,0 C 6,7 C 82 % 1028,4 hPa 0,0 l/m 0 min 0 min 0 W/m 3,2 km/h (1 Bft) 97,87 %
26.05.2023 02:42 10,8 C 10,0 C 6,7 C 82 % 1028,5 hPa 0,0 l/m 0 min 0 min 0 W/m 3,2 km/h (1 Bft) 98,00 %
26.05.2023 02:44 10,8 C 10,0 C 6,7 C 82 % 1028,5 hPa 0,0 l/m 0 min 0 min 0 W/m 6,4 km/h (2 Bft) 97,87 %
26.05.2023 02:46 10,8 C 10,0 C 6,7 C 82 % 1028,4 hPa 0,0 l/m 0 min 0 min 0 W/m 6,4 km/h (2 Bft) 95,74 %
26.05.2023 02:48 10,7 C 9,4 C 6,7 C 82 % 1028,5 hPa 0,0 l/m 0 min 0 min 0 W/m 3,2 km/h (1 Bft) 95,74 %
26.05.2023 02:50 10,7 C 9,4 C 6,7 C 82 % 1028,4 hPa 0,0 l/m 0 min 0 min 0 W/m 3,2 km/h (1 Bft) 95,65 %
26.05.2023 02:52 10,7 C 9,4 C 6,7 C 83 % 1028,5 hPa 0,0 l/m 0 min 0 min 0 W/m 3,2 km/h (1 Bft) 97,87 %
26.05.2023 02:54 10,7 C 9,4 C 6,7 C 83 % 1028,5 hPa 0,0 l/m 0 min 0 min 0 W/m 3,2 km/h (1 Bft) 97,87 %
26.05.2023 02:56 10,6 C 9,4 C 6,7 C 83 % 1028,5 hPa 0,0 l/m 0 min 0 min 0 W/m 3,2 km/h (1 Bft) 97,87 %
26.05.2023 02:58 10,6 C 9,4 C 6,7 C 83 % 1028,5 hPa 0,0 l/m 0 min 0 min 0 W/m 3,2 km/h (1 Bft) 95,74 %
26.05.2023 03:00 10,6 C 9,4 C 6,1 C 83 % 1028,5 hPa 0,0 l/m 0 min 0 min 0 W/m 3,2 km/h (1 Bft) 97,87 %
26.05.2023 03:02 10,6 C 9,4 C 6,1 C 83 % 1028,5 hPa 0,0 l/m 0 min 0 min 0 W/m 3,2 km/h (1 Bft) 97,87 %
26.05.2023 03:04 10,5 C 9,4 C 6,7 C 83 % 1028,5 hPa 0,0 l/m 0 min 0 min 0 W/m 6,4 km/h (2 Bft) 97,87 %
26.05.2023 03:06 10,5 C 9,4 C 6,1 C 83 % 1028,4 hPa 0,0 l/m 0 min 0 min 0 W/m 3,2 km/h (1 Bft) 97,87 %
26.05.2023 03:08 10,4 C 9,4 C 6,1 C 83 % 1028,4 hPa 0,0 l/m 0 min 0 min 0 W/m 3,2 km/h (1 Bft) 95,74 %
26.05.2023 03:10 10,4 C 9,4 C 6,1 C 83 % 1028,4 hPa 0,0 l/m 0 min 0 min 0 W/m 3,2 km/h (1 Bft) 95,74 %
26.05.2023 03:12 10,4 C 9,4 C 6,1 C 83 % 1028,5 hPa 0,0 l/m 0 min 0 min 0 W/m 12,9 km/h (3 Bft) 97,87 %
26.05.2023 03:14 10,3 C 9,4 C 6,1 C 83 % 1028,5 hPa 0,0 l/m 0 min 0 min 0 W/m 3,2 km/h (1 Bft) 97,87 %
26.05.2023 03:16 10,3 C 9,4 C 6,1 C 83 % 1028,5 hPa 0,0 l/m 0 min 0 min 0 W/m 3,2 km/h (1 Bft) 100,00 %
26.05.2023 03:18 10,3 C 9,4 C 6,1 C 84 % 1028,5 hPa 0,0 l/m 0 min 0 min 0 W/m 3,2 km/h (1 Bft) 97,83 %
26.05.2023 03:20 10,3 C 9,4 C 6,1 C 83 % 1028,5 hPa 0,0 l/m 0 min 0 min 0 W/m 0,0 km/h (0 Bft) 100,00 %
26.05.2023 03:22 10,3 C 9,4 C 6,1 C 84 % 1028,6 hPa 0,0 l/m 0 min 0 min 0 W/m 0,0 km/h (0 Bft) 100,00 %
26.05.2023 03:24 10,2 C 9,4 C 6,1 C 84 % 1028,6 hPa 0,0 l/m 0 min 0 min 0 W/m 6,4 km/h (2 Bft) 100,00 %
26.05.2023 03:26 10,2 C 9,4 C 6,1 C 84 % 1028,7 hPa 0,0 l/m 0 min 0 min 0 W/m 3,2 km/h (1 Bft) 100,00 %
26.05.2023 03:28 10,2 C 8,9 C 6,1 C 84 % 1028,7 hPa 0,0 l/m 0 min 0 min 0 W/m 3,2 km/h (1 Bft) 97,87 %
26.05.2023 03:30 10,2 C 8,9 C 6,1 C 84 % 1028,7 hPa 0,0 l/m 0 min 0 min 0 W/m 0,0 km/h (0 Bft) 97,87 %
26.05.2023 03:32 10,1 C 8,9 C 6,1 C 84 % 1028,7 hPa 0,0 l/m 0 min 0 min 0 W/m 3,2 km/h (1 Bft) 100,00 %
26.05.2023 03:34 10,1 C 8,9 C 6,1 C 84 % 1028,7 hPa 0,0 l/m 0 min 0 min 0 W/m 3,2 km/h (1 Bft) 100,00 %
26.05.2023 03:36 10,1 C 8,9 C 6,1 C 84 % 1028,6 hPa 0,0 l/m 0 min 0 min 0 W/m 3,2 km/h (1 Bft) 97,87 %
26.05.2023 03:38 10,1 C 8,9 C 5,6 C 84 % 1028,7 hPa 0,0 l/m 0 min 0 min 0 W/m 3,2 km/h (1 Bft) 100,00 %
26.05.2023 03:40 10,0 C 8,9 C 5,6 C 84 % 1028,6 hPa 0,0 l/m 0 min 0 min 0 W/m 3,2 km/h (1 Bft) 100,00 %
26.05.2023 03:42 10,0 C 8,9 C 5,6 C 84 % 1028,6 hPa 0,0 l/m 0 min 0 min 0 W/m 3,2 km/h (1 Bft) 100,00 %
26.05.2023 03:44 9,9 C 8,9 C 5,6 C 84 % 1028,6 hPa 0,0 l/m 0 min 0 min 0 W/m 9,7 km/h (2 Bft) 97,83 %
26.05.2023 03:46 9,9 C 8,9 C 5,6 C 84 % 1028,7 hPa 0,0 l/m 0 min 0 min 0 W/m 3,2 km/h (1 Bft) 97,87 %
26.05.2023 03:48 9,9 C 8,9 C 5,6 C 85 % 1028,7 hPa 0,0 l/m 0 min 0 min 0 W/m 6,4 km/h (2 Bft) 100,00 %
26.05.2023 03:50 9,9 C 8,9 C 5,6 C 85 % 1028,6 hPa 0,0 l/m 0 min 0 min 0 W/m 3,2 km/h (1 Bft) 95,74 %
26.05.2023 03:52 9,8 C 8,9 C 5,6 C 85 % 1028,6 hPa 0,0 l/m 0 min 0 min 0 W/m 6,4 km/h (2 Bft) 100,00 %
26.05.2023 03:54 9,8 C 8,9 C 5,6 C 85 % 1028,6 hPa 0,0 l/m 0 min 0 min 0 W/m 3,2 km/h (1 Bft) 100,00 %
26.05.2023 03:56 9,8 C 8,9 C 5,6 C 85 % 1028,6 hPa 0,0 l/m 0 min 0 min 0 W/m 3,2 km/h (1 Bft) 100,00 %
26.05.2023 03:58 9,8 C 8,9 C 5,6 C 85 % 1028,6 hPa 0,0 l/m 0 min 0 min 0 W/m 3,2 km/h (1 Bft) 100,00 %
26.05.2023 04:00 9,8 C 8,9 C 5,6 C 85 % 1028,6 hPa 0,0 l/m 0 min 0 min 0 W/m 3,2 km/h (1 Bft) 100,00 %
26.05.2023 04:05 9,7 C 8,9 C 5,6 C 85 % 1028,6 hPa 0,0 l/m 0 min 0 min 0 W/m 3,2 km/h (1 Bft) 100,00 %
26.05.2023 04:06 9,7 C 8,9 C 5,6 C 85 % 1028,6 hPa 0,0 l/m 0 min 0 min 0 W/m 3,2 km/h (1 Bft) 96,00 %
26.05.2023 04:08 9,7 C 8,9 C 5,6 C 85 % 1028,6 hPa 0,0 l/m 0 min 0 min 0 W/m 3,2 km/h (1 Bft) 100,00 %
26.05.2023 04:10 9,7 C 8,9 C 5,6 C 85 % 1028,6 hPa 0,0 l/m 0 min 0 min 0 W/m 3,2 km/h (1 Bft) 97,87 %
26.05.2023 04:12 9,6 C 8,3 C 5,6 C 85 % 1028,6 hPa 0,0 l/m 0 min 0 min 0 W/m 3,2 km/h (1 Bft) 93,62 %
26.05.2023 04:14 9,6 C 8,3 C 5,6 C 85 % 1028,6 hPa 0,0 l/m 0 min 0 min 0 W/m 3,2 km/h (1 Bft) 100,00 %
26.05.2023 04:16 9,6 C 8,3 C 5,6 C 85 % 1028,6 hPa 0,0 l/m 0 min 0 min 0 W/m 6,4 km/h (2 Bft) 100,00 %
26.05.2023 04:18 9,6 C 8,3 C 5,6 C 85 % 1028,6 hPa 0,0 l/m 0 min 0 min 0 W/m 3,2 km/h (1 Bft) 97,83 %
26.05.2023 04:20 9,6 C 8,3 C 5,6 C 85 % 1028,6 hPa 0,0 l/m 0 min 0 min 0 W/m 3,2 km/h (1 Bft) 93,62 %
26.05.2023 04:22 9,5 C 8,3 C 5,0 C 86 % 1028,6 hPa 0,0 l/m 0 min 0 min 0 W/m 3,2 km/h (1 Bft) 97,87 %
26.05.2023 04:24 9,4 C 8,3 C 5,0 C 86 % 1028,6 hPa 0,0 l/m 0 min 0 min 0 W/m 6,4 km/h (2 Bft) 95,83 %
26.05.2023 04:26 9,4 C 8,3 C 5,0 C 86 % 1028,6 hPa 0,0 l/m 0 min 0 min 0 W/m 3,2 km/h (1 Bft) 95,74 %
26.05.2023 04:28 9,4 C 8,3 C 5,0 C 86 % 1028,7 hPa 0,0 l/m 0 min 0 min 0 W/m 3,2 km/h (1 Bft) 93,48 %
26.05.2023 04:30 9,4 C 8,3 C 5,0 C 86 % 1028,6 hPa 0,0 l/m 0 min 0 min 0 W/m 3,2 km/h (1 Bft) 91,49 %
26.05.2023 04:32 9,3 C 8,3 C 5,0 C 86 % 1028,7 hPa 0,0 l/m 0 min 0 min 0 W/m 3,2 km/h (1 Bft) 91,49 %
26.05.2023 04:34 9,3 C 8,3 C 5,0 C 86 % 1028,7 hPa 0,0 l/m 0 min 0 min 0 W/m 3,2 km/h (1 Bft) 91,49 %
26.05.2023 04:36 9,3 C 8,3 C 5,0 C 86 % 1028,7 hPa 0,0 l/m 0 min 0 min 0 W/m 3,2 km/h (1 Bft) 93,62 %
26.05.2023 04:38 9,3 C 8,3 C 5,0 C 86 % 1028,7 hPa 0,0 l/m 0 min 0 min 0 W/m 0,0 km/h (0 Bft) 93,62 %
26.05.2023 04:40 9,3 C 7,8 C 5,0 C 86 % 1028,7 hPa 0,0 l/m 0 min 0 min 0 W/m 3,2 km/h (1 Bft) 93,62 %
26.05.2023 04:42 9,2 C 7,8 C 5,0 C 86 % 1028,7 hPa 0,0 l/m 0 min 0 min 0 W/m 6,4 km/h (2 Bft) 89,13 %
26.05.2023 04:44 9,2 C 7,8 C 5,0 C 86 % 1028,7 hPa 0,0 l/m 0 min 0 min 0 W/m 3,2 km/h (1 Bft) 93,62 %
26.05.2023 04:46 9,2 C 7,8 C 5,0 C 86 % 1028,7 hPa 0,0 l/m 0 min 0 min 0 W/m 6,4 km/h (2 Bft) 93,62 %
26.05.2023 04:48 9,1 C 7,8 C 5,0 C 86 % 1028,8 hPa 0,0 l/m 0 min 0 min 0 W/m 3,2 km/h (1 Bft) 93,62 %
26.05.2023 04:50 9,1 C 7,8 C 5,0 C 86 % 1028,8 hPa 0,0 l/m 0 min 0 min 0 W/m 3,2 km/h (1 Bft) 91,49 %
26.05.2023 04:52 9,1 C 7,8 C 5,0 C 86 % 1028,8 hPa 0,0 l/m 0 min 0 min 0 W/m 3,2 km/h (1 Bft) 95,74 %
26.05.2023 04:54 9,1 C 7,8 C 5,0 C 87 % 1028,8 hPa 0,0 l/m 0 min 0 min 0 W/m 3,2 km/h (1 Bft) 97,87 %
26.05.2023 04:56 9,0 C 7,8 C 5,0 C 87 % 1028,8 hPa 0,0 l/m 0 min 0 min 0 W/m 0,0 km/h (0 Bft) 95,65 %
26.05.2023 04:58 9,0 C 7,8 C 5,0 C 87 % 1028,7 hPa 0,0 l/m 0 min 0 min 0 W/m 0,0 km/h (0 Bft) 97,87 %
26.05.2023 05:00 8,9 C 7,8 C 5,0 C 87 % 1028,7 hPa 0,0 l/m 0 min 0 min 0 W/m 3,2 km/h (1 Bft) 97,87 %
26.05.2023 05:02 8,9 C 7,8 C 5,0 C 87 % 1028,7 hPa 0,0 l/m 0 min 0 min 0 W/m 3,2 km/h (1 Bft) 100,00 %
26.05.2023 05:04 8,9 C 7,8 C 5,0 C 87 % 1028,7 hPa 0,0 l/m 0 min 0 min 0 W/m 9,7 km/h (2 Bft) 94,00 %
26.05.2023 05:06 8,9 C 7,8 C 5,0 C 87 % 1028,8 hPa 0,0 l/m 0 min 0 min 0 W/m 3,2 km/h (1 Bft) 96,55 %
26.05.2023 05:08 8,8 C 7,8 C 5,0 C 87 % 1028,8 hPa 0,0 l/m 0 min 0 min 0 W/m 6,4 km/h (2 Bft) 97,22 %
26.05.2023 05:10 8,8 C 7,8 C 5,0 C 87 % 1028,8 hPa 0,0 l/m 0 min 0 min 0 W/m 6,4 km/h (2 Bft) 95,65 %
26.05.2023 05:12 8,8 C 7,8 C 5,0 C 88 % 1028,7 hPa 0,0 l/m 0 min 0 min 0 W/m 6,4 km/h (2 Bft) 95,92 %
26.05.2023 05:14 8,8 C 7,8 C 5,0 C 88 % 1028,7 hPa 0,0 l/m 0 min 0 min 0 W/m 6,4 km/h (2 Bft) 95,74 %
26.05.2023 05:16 8,8 C 7,8 C 5,0 C 88 % 1028,7 hPa 0,0 l/m 0 min 0 min 0 W/m 6,4 km/h (2 Bft) 97,87 %
26.05.2023 05:18 8,8 C 7,8 C 5,0 C 88 % 1028,7 hPa 0,0 l/m 0 min 0 min 0 W/m 6,4 km/h (2 Bft) 93,62 %
26.05.2023 05:20 8,7 C 7,8 C 5,0 C 88 % 1028,7 hPa 0,0 l/m 0 min 0 min 0 W/m 6,4 km/h (2 Bft) 95,74 %
26.05.2023 05:22 8,7 C 7,8 C 5,0 C 88 % 1028,7 hPa 0,0 l/m 0 min 0 min 0 W/m 6,4 km/h (2 Bft) 91,49 %
26.05.2023 05:24 8,7 C 7,8 C 5,0 C 88 % 1028,8 hPa 0,0 l/m 0 min 0 min 0 W/m 6,4 km/h (2 Bft) 97,83 %
26.05.2023 05:26 8,7 C 7,8 C 5,0 C 88 % 1028,8 hPa 0,0 l/m 0 min 0 min 0 W/m 3,2 km/h (1 Bft) 93,62 %
26.05.2023 05:28 8,7 C 7,8 C 5,0 C 88 % 1028,8 hPa 0,0 l/m 0 min 0 min 0 W/m 6,4 km/h (2 Bft) 97,87 %
26.05.2023 05:30 8,7 C 7,8 C 5,0 C 88 % 1028,8 hPa 0,0 l/m 0 min 0 min 0 W/m 3,2 km/h (1 Bft) 95,74 %
26.05.2023 05:32 8,7 C 7,8 C 5,0 C 88 % 1028,8 hPa 0,0 l/m 0 min 0 min 0 W/m 3,2 km/h (1 Bft) 95,74 %
26.05.2023 05:34 8,7 C 7,8 C 4,4 C 88 % 1028,8 hPa 0,0 l/m 0 min 0 min 0 W/m 6,4 km/h (2 Bft) 95,74 %
26.05.2023 05:36 8,6 C 7,8 C 4,4 C 89 % 1028,8 hPa 0,0 l/m 0 min 0 min 1 W/m 3,2 km/h (1 Bft) 100,00 %
26.05.2023 05:38 8,6 C 7,8 C 5,0 C 89 % 1028,8 hPa 0,0 l/m 0 min 0 min 5 W/m 6,4 km/h (2 Bft) 97,87 %
26.05.2023 05:40 8,6 C 7,8 C 4,4 C 89 % 1028,8 hPa 0,0 l/m 0 min 0 min 5 W/m 9,7 km/h (2 Bft) 97,83 %
26.05.2023 05:42 8,6 C 7,8 C 4,4 C 89 % 1028,8 hPa 0,0 l/m 0 min 0 min 6 W/m 3,2 km/h (1 Bft) 100,00 %
26.05.2023 05:44 8,6 C 7,8 C 5,0 C 89 % 1028,8 hPa 0,0 l/m 0 min 0 min 7 W/m 6,4 km/h (2 Bft) 97,87 %
26.05.2023 05:46 8,6 C 7,8 C 5,0 C 89 % 1028,8 hPa 0,0 l/m 0 min 0 min 7 W/m 9,7 km/h (2 Bft) 100,00 %
26.05.2023 05:48 8,7 C 7,8 C 5,0 C 89 % 1028,8 hPa 0,0 l/m 0 min 0 min 9 W/m 6,4 km/h (2 Bft) 100,00 %
26.05.2023 05:50 8,7 C 8,3 C 5,0 C 89 % 1028,8 hPa 0,0 l/m 0 min 0 min 10 W/m 12,9 km/h (3 Bft) 93,62 %
26.05.2023 05:52 8,7 C 8,3 C 5,0 C 89 % 1028,8 hPa 0,0 l/m 0 min 0 min 11 W/m 9,7 km/h (2 Bft) 100,00 %
26.05.2023 05:54 8,7 C 8,3 C 5,0 C 89 % 1028,7 hPa 0,0 l/m 0 min 0 min 11 W/m 9,7 km/h (2 Bft) 97,87 %
26.05.2023 05:56 8,7 C 8,3 C 5,0 C 89 % 1028,8 hPa 0,0 l/m 0 min 0 min 12 W/m 6,4 km/h (2 Bft) 97,87 %
26.05.2023 05:58 8,7 C 8,3 C 5,0 C 89 % 1028,8 hPa 0,0 l/m 0 min 0 min 13 W/m 12,9 km/h (3 Bft) 97,87 %
26.05.2023 06:00 8,7 C 8,3 C 5,0 C 89 % 1028,8 hPa 0,0 l/m 0 min 0 min 14 W/m 12,9 km/h (3 Bft) 95,74 %
26.05.2023 06:02 8,7 C 8,3 C 5,0 C 89 % 1028,8 hPa 0,0 l/m 0 min 0 min 15 W/m 9,7 km/h (2 Bft) 95,74 %
26.05.2023 06:04 8,7 C 7,8 C 5,0 C 89 % 1028,9 hPa 0,0 l/m 0 min 0 min 16 W/m 12,9 km/h (3 Bft) 97,92 %
26.05.2023 06:07 8,7 C 8,3 C 5,0 C 89 % 1028,8 hPa 0,0 l/m 0 min 0 min 19 W/m 25,7 km/h (4 Bft) 97,92 %
26.05.2023 06:08 8,7 C 8,3 C 5,0 C 89 % 1028,8 hPa 0,0 l/m 0 min 0 min 18 W/m 25,7 km/h (4 Bft) 97,62 %
26.05.2023 06:10 8,7 C 8,3 C 5,0 C 89 % 1028,9 hPa 0,0 l/m 0 min 0 min 20 W/m 6,4 km/h (2 Bft) 97,87 %
26.05.2023 06:12 8,7 C 8,3 C 5,0 C 89 % 1028,8 hPa 0,0 l/m 0 min 0 min 21 W/m 9,7 km/h (2 Bft) 95,74 %
26.05.2023 06:14 8,7 C 8,3 C 5,0 C 89 % 1028,9 hPa 0,0 l/m 0 min 0 min 23 W/m 12,9 km/h (3 Bft) 95,74 %
26.05.2023 06:16 8,8 C 8,3 C 5,0 C 89 % 1028,8 hPa 0,0 l/m 0 min 0 min 25 W/m 6,4 km/h (2 Bft) 97,87 %
26.05.2023 06:18 8,8 C 8,3 C 5,0 C 89 % 1028,9 hPa 0,0 l/m 0 min 0 min 26 W/m 12,9 km/h (3 Bft) 95,74 %
26.05.2023 06:20 8,8 C 8,3 C 5,0 C 89 % 1028,9 hPa 0,0 l/m 0 min 0 min 30 W/m 9,7 km/h (2 Bft) 95,74 %
26.05.2023 06:22 8,8 C 8,3 C 5,0 C 89 % 1028,9 hPa 0,0 l/m 0 min 0 min 29 W/m 9,7 km/h (2 Bft) 91,30 %
26.05.2023 06:24 8,8 C 8,3 C 5,0 C 89 % 1028,9 hPa 0,0 l/m 0 min 0 min 28 W/m 6,4 km/h (2 Bft) 97,87 %
26.05.2023 06:26 8,8 C 8,3 C 5,0 C 89 % 1028,9 hPa 0,0 l/m 0 min 0 min 28 W/m 12,9 km/h (3 Bft) 91,49 %
26.05.2023 06:28 8,8 C 8,3 C 5,0 C 89 % 1028,9 hPa 0,0 l/m 0 min 0 min 33 W/m 9,7 km/h (2 Bft) 95,74 %
26.05.2023 06:30 8,8 C 8,3 C 5,0 C 89 % 1028,9 hPa 0,0 l/m 0 min 0 min 39 W/m 6,4 km/h (2 Bft) 95,74 %
26.05.2023 06:32 8,8 C 8,3 C 5,0 C 89 % 1028,9 hPa 0,0 l/m 0 min 0 min 40 W/m 12,9 km/h (3 Bft) 93,62 %
26.05.2023 06:34 8,9 C 8,3 C 5,0 C 89 % 1028,9 hPa 0,0 l/m 0 min 0 min 40 W/m 16,1 km/h (3 Bft) 97,87 %
26.05.2023 06:36 8,9 C 8,3 C 5,0 C 89 % 1029,0 hPa 0,0 l/m 0 min 0 min 45 W/m 9,7 km/h (2 Bft) 97,83 %
26.05.2023 06:38 8,9 C 8,3 C 5,0 C 89 % 1028,9 hPa 0,0 l/m 0 min 0 min 46 W/m 12,9 km/h (3 Bft) 97,87 %
26.05.2023 06:40 8,9 C 8,9 C 5,0 C 89 % 1029,0 hPa 0,0 l/m 0 min 0 min 51 W/m 6,4 km/h (2 Bft) 97,87 %
26.05.2023 06:42 9,0 C 8,9 C 5,6 C 89 % 1029,0 hPa 0,0 l/m 0 min 0 min 47 W/m 16,1 km/h (3 Bft) 97,87 %
26.05.2023 06:44 9,1 C 8,9 C 5,6 C 89 % 1028,9 hPa 0,0 l/m 0 min 0 min 47 W/m 9,7 km/h (2 Bft) 97,87 %
26.05.2023 06:46 9,1 C 8,9 C 5,6 C 89 % 1029,0 hPa 0,0 l/m 0 min 0 min 48 W/m 9,7 km/h (2 Bft) 97,87 %
26.05.2023 06:48 9,1 C 8,9 C 5,6 C 89 % 1029,0 hPa 0,0 l/m 0 min 0 min 44 W/m 12,9 km/h (3 Bft) 97,87 %
26.05.2023 06:50 9,1 C 8,9 C 5,6 C 89 % 1029,0 hPa 0,0 l/m 0 min 0 min 45 W/m 12,9 km/h (3 Bft) 97,83 %
26.05.2023 06:52 9,2 C 8,9 C 5,6 C 89 % 1028,9 hPa 0,0 l/m 0 min 0 min 48 W/m 22,5 km/h (4 Bft) 95,74 %
26.05.2023 06:54 9,2 C 8,9 C 5,6 C 88 % 1028,9 hPa 0,0 l/m 0 min 0 min 50 W/m 16,1 km/h (3 Bft) 95,74 %
26.05.2023 06:56 9,2 C 8,9 C 5,6 C 88 % 1028,9 hPa 0,0 l/m 0 min 0 min 53 W/m 12,9 km/h (3 Bft) 97,87 %
26.05.2023 06:58 9,2 C 8,9 C 5,6 C 89 % 1028,9 hPa 0,0 l/m 0 min 0 min 52 W/m 6,4 km/h (2 Bft) 95,74 %
26.05.2023 07:00 9,2 C 8,9 C 5,6 C 88 % 1029,0 hPa 0,0 l/m 0 min 0 min 54 W/m 16,1 km/h (3 Bft) 97,87 %
26.05.2023 07:02 9,3 C 8,9 C 5,6 C 88 % 1029,0 hPa 0,0 l/m 0 min 0 min 56 W/m 12,9 km/h (3 Bft) 97,87 %
26.05.2023 07:04 9,3 C 8,9 C 5,6 C 88 % 1029,0 hPa 0,0 l/m 0 min 0 min 60 W/m 16,1 km/h (3 Bft) 97,87 %
26.05.2023 07:06 9,3 C 8,9 C 5,6 C 88 % 1029,0 hPa 0,0 l/m 0 min 0 min 66 W/m 19,3 km/h (3 Bft) 98,31 %
26.05.2023 07:08 9,3 C 8,9 C 5,6 C 88 % 1029,0 hPa 0,0 l/m 0 min 0 min 71 W/m 12,9 km/h (3 Bft) 100,00 %
26.05.2023 07:10 9,4 C 9,4 C 5,6 C 88 % 1029,0 hPa 0,0 l/m 0 min 0 min 74 W/m 16,1 km/h (3 Bft) 100,00 %
26.05.2023 07:12 9,4 C 9,4 C 5,6 C 88 % 1029,0 hPa 0,0 l/m 0 min 0 min 72 W/m 12,9 km/h (3 Bft) 97,87 %
26.05.2023 07:14 9,4 C 9,4 C 5,6 C 88 % 1029,0 hPa 0,0 l/m 0 min 0 min 74 W/m 12,9 km/h (3 Bft) 100,00 %
26.05.2023 07:16 9,4 C 9,4 C 5,6 C 88 % 1029,0 hPa 0,0 l/m 0 min 0 min 77 W/m 12,9 km/h (3 Bft) 100,00 %
26.05.2023 07:18 9,4 C 9,4 C 5,6 C 88 % 1029,0 hPa 0,0 l/m 0 min 0 min 78 W/m 12,9 km/h (3 Bft) 100,00 %
26.05.2023 07:20 9,5 C 9,4 C 5,6 C 88 % 1029,0 hPa 0,0 l/m 0 min 0 min 79 W/m 19,3 km/h (3 Bft) 97,87 %
26.05.2023 07:22 9,6 C 9,4 C 5,6 C 88 % 1029,0 hPa 0,0 l/m 0 min 0 min 85 W/m 6,4 km/h (2 Bft) 100,00 %
26.05.2023 07:24 9,6 C 9,4 C 5,6 C 88 % 1029,0 hPa 0,0 l/m 0 min 0 min 90 W/m 16,1 km/h (3 Bft) 97,87 %
26.05.2023 07:26 9,6 C 9,4 C 6,1 C 88 % 1029,0 hPa 0,0 l/m 0 min 0 min 89 W/m 16,1 km/h (3 Bft) 100,00 %
26.05.2023 07:28 9,6 C 9,4 C 5,6 C 88 % 1029,1 hPa 0,0 l/m 0 min 0 min 90 W/m 9,7 km/h (2 Bft) 100,00 %
26.05.2023 07:30 9,6 C 9,4 C 5,6 C 87 % 1029,1 hPa 0,0 l/m 0 min 0 min 92 W/m 25,7 km/h (4 Bft) 100,00 %
26.05.2023 07:32 9,7 C 9,4 C 6,1 C 87 % 1029,2 hPa 0,0 l/m 0 min 0 min 102 W/m 9,7 km/h (2 Bft) 100,00 %
26.05.2023 07:34 9,7 C 9,4 C 6,1 C 87 % 1029,1 hPa 0,0 l/m 0 min 0 min 101 W/m 12,9 km/h (3 Bft) 100,00 %
26.05.2023 07:36 9,7 C 9,4 C 6,1 C 87 % 1029,1 hPa 0,0 l/m 0 min 0 min 100 W/m 16,1 km/h (3 Bft) 97,87 %
26.05.2023 07:38 9,7 C 9,4 C 6,1 C 87 % 1029,1 hPa 0,0 l/m 0 min 0 min 98 W/m 12,9 km/h (3 Bft) 95,74 %
26.05.2023 07:40 9,8 C 10,0 C 6,1 C 87 % 1029,1 hPa 0,0 l/m 0 min 0 min 103 W/m 9,7 km/h (2 Bft) 100,00 %
26.05.2023 07:42 9,8 C 10,0 C 6,1 C 87 % 1029,1 hPa 0,0 l/m 0 min 0 min 109 W/m 9,7 km/h (2 Bft) 93,62 %
26.05.2023 07:44 9,8 C 10,0 C 6,1 C 87 % 1029,1 hPa 0,0 l/m 0 min 0 min 104 W/m 12,9 km/h (3 Bft) 97,87 %
26.05.2023 07:46 9,8 C 10,0 C 6,1 C 87 % 1029,2 hPa 0,0 l/m 0 min 0 min 106 W/m 16,1 km/h (3 Bft) 100,00 %
26.05.2023 07:48 9,9 C 10,0 C 6,1 C 87 % 1029,2 hPa 0,0 l/m 0 min 0 min 108 W/m 16,1 km/h (3 Bft) 95,65 %
26.05.2023 07:50 9,9 C 10,0 C 6,1 C 87 % 1029,2 hPa 0,0 l/m 0 min 0 min 113 W/m 19,3 km/h (3 Bft) 97,87 %
26.05.2023 07:52 9,9 C 10,0 C 6,1 C 87 % 1029,3 hPa 0,0 l/m 0 min 0 min 120 W/m 25,7 km/h (4 Bft) 95,74 %
26.05.2023 07:54 9,9 C 10,0 C 6,1 C 86 % 1029,3 hPa 0,0 l/m 0 min 0 min 122 W/m 9,7 km/h (2 Bft) 95,74 %
26.05.2023 07:56 9,9 C 10,0 C 6,1 C 87 % 1029,3 hPa 0,0 l/m 0 min 0 min 126 W/m 19,3 km/h (3 Bft) 91,49 %
26.05.2023 07:58 9,9 C 10,0 C 6,1 C 86 % 1029,4 hPa 0,0 l/m 0 min 0 min 130 W/m 25,7 km/h (4 Bft) 93,62 %
26.05.2023 08:00 9,9 C 10,0 C 6,1 C 86 % 1029,4 hPa 0,0 l/m 0 min 0 min 132 W/m 16,1 km/h (3 Bft) 91,49 %
26.05.2023 08:02 9,9 C 10,0 C 6,1 C 86 % 1029,5 hPa 0,0 l/m 0 min 0 min 134 W/m 9,7 km/h (2 Bft) 95,65 %
26.05.2023 08:04 9,9 C 10,0 C 6,7 C 86 % 1029,5 hPa 0,0 l/m 0 min 0 min 145 W/m 19,3 km/h (3 Bft) 95,83 %
26.05.2023 08:06 10,0 C 10,0 C 6,7 C 86 % 1029,6 hPa 0,0 l/m 0 min 0 min 144 W/m 12,9 km/h (3 Bft) 93,62 %
26.05.2023 08:08 10,1 C 10,0 C 6,7 C 86 % 1029,5 hPa 0,0 l/m 0 min 0 min 163 W/m 22,5 km/h (4 Bft) 95,74 %
26.05.2023 08:10 10,1 C 10,0 C 6,7 C 86 % 1029,6 hPa 0,0 l/m 0 min 0 min 161 W/m 22,5 km/h (4 Bft) 95,74 %
26.05.2023 08:12 10,1 C 10,6 C 6,7 C 86 % 1029,5 hPa 0,0 l/m 0 min 0 min 157 W/m 19,3 km/h (3 Bft) 95,74 %
26.05.2023 08:14 10,1 C 10,6 C 6,7 C 86 % 1029,5 hPa 0,0 l/m 0 min 0 min 166 W/m 12,9 km/h (3 Bft) 95,65 %
26.05.2023 08:16 10,2 C 10,6 C 6,7 C 86 % 1029,6 hPa 0,0 l/m 0 min 0 min 171 W/m 12,9 km/h (3 Bft) 95,74 %
26.05.2023 08:18 10,2 C 10,6 C 6,7 C 86 % 1029,6 hPa 0,0 l/m 0 min 0 min 169 W/m 16,1 km/h (3 Bft) 91,49 %
26.05.2023 08:20 10,3 C 10,6 C 6,7 C 86 % 1029,6 hPa 0,0 l/m 0 min 0 min 175 W/m 9,7 km/h (2 Bft) 95,74 %
26.05.2023 08:22 10,3 C 11,1 C 6,7 C 86 % 1029,6 hPa 0,0 l/m 2 min 0 min 198 W/m 16,1 km/h (3 Bft) 95,74 %
26.05.2023 08:24 10,4 C 12,2 C 7,2 C 86 % 1029,6 hPa 0,0 l/m 2 min 0 min 268 W/m 16,1 km/h (3 Bft) 97,87 %
26.05.2023 08:26 10,5 C 12,2 C 7,2 C 85 % 1029,6 hPa 0,0 l/m 2 min 0 min 288 W/m 12,9 km/h (3 Bft) 97,87 %
26.05.2023 08:28 10,6 C 12,2 C 7,2 C 85 % 1029,7 hPa 0,0 l/m 2 min 0 min 240 W/m 19,3 km/h (3 Bft) 97,87 %
26.05.2023 08:30 10,7 C 12,2 C 7,2 C 85 % 1029,6 hPa 0,0 l/m 2 min 0 min 238 W/m 9,7 km/h (2 Bft) 95,65 %
26.05.2023 08:32 10,7 C 12,2 C 7,2 C 84 % 1029,6 hPa 0,0 l/m 2 min 0 min 212 W/m 19,3 km/h (3 Bft) 97,87 %
26.05.2023 08:34 10,7 C 11,7 C 7,2 C 84 % 1029,6 hPa 0,0 l/m 0 min 0 min 190 W/m 12,9 km/h (3 Bft) 97,87 %
26.05.2023 08:36 10,8 C 11,7 C 7,2 C 84 % 1029,7 hPa 0,0 l/m 2 min 0 min 217 W/m 6,4 km/h (2 Bft) 91,49 %
26.05.2023 08:38 10,8 C 11,7 C 7,2 C 84 % 1029,7 hPa 0,0 l/m 0 min 0 min 206 W/m 12,9 km/h (3 Bft) 97,87 %
26.05.2023 08:40 10,9 C 11,7 C 7,2 C 84 % 1029,7 hPa 0,0 l/m 0 min 0 min 202 W/m 12,9 km/h (3 Bft) 93,62 %
26.05.2023 08:42 10,9 C 12,2 C 7,2 C 84 % 1029,6 hPa 0,0 l/m 2 min 0 min 241 W/m 9,7 km/h (2 Bft) 100,00 %
26.05.2023 08:44 10,9 C 12,2 C 7,2 C 84 % 1029,6 hPa 0,0 l/m 2 min 0 min 292 W/m 9,7 km/h (2 Bft) 100,00 %
26.05.2023 08:46 11,0 C 12,2 C 7,2 C 83 % 1029,6 hPa 0,0 l/m 0 min 0 min 220 W/m 12,9 km/h (3 Bft) 100,00 %
26.05.2023 08:48 11,0 C 12,2 C 7,2 C 83 % 1029,7 hPa 0,0 l/m 2 min 0 min 240 W/m 19,3 km/h (3 Bft) 95,74 %
26.05.2023 08:50 11,0 C 12,2 C 7,2 C 83 % 1029,7 hPa 0,0 l/m 0 min 0 min 184 W/m 22,5 km/h (4 Bft) 95,74 %
26.05.2023 08:52 11,0 C 12,2 C 7,2 C 83 % 1029,7 hPa 0,0 l/m 0 min 0 min 168 W/m 19,3 km/h (3 Bft) 97,87 %
26.05.2023 08:54 10,9 C 11,7 C 7,2 C 82 % 1029,7 hPa 0,0 l/m 0 min 0 min 151 W/m 12,9 km/h (3 Bft) 97,87 %
26.05.2023 08:56 10,9 C 12,2 C 7,2 C 83 % 1029,7 hPa 0,0 l/m 0 min 0 min 167 W/m 12,9 km/h (3 Bft) 97,83 %
26.05.2023 08:58 10,9 C 12,8 C 7,2 C 83 % 1029,7 hPa 0,0 l/m 2 min 0 min 305 W/m 19,3 km/h (3 Bft) 97,87 %
26.05.2023 09:00 11,0 C 12,8 C 7,8 C 83 % 1029,7 hPa 0,0 l/m 2 min 0 min 296 W/m 16,1 km/h (3 Bft) 100,00 %
26.05.2023 09:02 11,1 C 13,9 C 7,8 C 83 % 1029,7 hPa 0,0 l/m 2 min 0 min 318 W/m 19,3 km/h (3 Bft) 100,00 %
26.05.2023 09:04 11,2 C 15,0 C 8,3 C 83 % 1029,8 hPa 0,0 l/m 2 min 0 min 437 W/m 16,1 km/h (3 Bft) 100,00 %
26.05.2023 09:06 11,3 C 15,6 C 8,3 C 83 % 1029,8 hPa 0,0 l/m 2 min 0 min 388 W/m 12,9 km/h (3 Bft) 100,00 %
26.05.2023 09:08 11,5 C 16,7 C 8,9 C 83 % 1029,9 hPa 0,0 l/m 2 min 0 min 428 W/m 9,7 km/h (2 Bft) 97,87 %
26.05.2023 09:10 11,7 C 16,7 C 8,9 C 83 % 1029,8 hPa 0,0 l/m 2 min 0 min 438 W/m 12,9 km/h (3 Bft) 93,48 %
26.05.2023 09:12 11,8 C 17,2 C 9,4 C 82 % 1029,9 hPa 0,0 l/m 2 min 0 min 485 W/m 25,7 km/h (4 Bft) 97,87 %
26.05.2023 09:14 12,0 C 17,2 C 10,0 C 82 % 1029,9 hPa 0,0 l/m 2 min 0 min 487 W/m 16,1 km/h (3 Bft) 95,74 %
26.05.2023 09:16 12,2 C 17,8 C 10,0 C 81 % 1029,9 hPa 0,0 l/m 2 min 0 min 489 W/m 9,7 km/h (2 Bft) 97,87 %
26.05.2023 09:18 12,4 C 18,3 C 10,0 C 81 % 1029,9 hPa 0,0 l/m 2 min 0 min 487 W/m 9,7 km/h (2 Bft) 97,87 %
26.05.2023 09:20 12,5 C 18,3 C 10,0 C 80 % 1029,9 hPa 0,0 l/m 2 min 0 min 485 W/m 12,9 km/h (3 Bft) 97,87 %
26.05.2023 09:22 12,6 C 17,2 C 10,0 C 79 % 1029,8 hPa 0,0 l/m 2 min 0 min 496 W/m 12,9 km/h (3 Bft) 97,87 %
26.05.2023 09:24 12,7 C 17,8 C 10,0 C 79 % 1029,9 hPa 0,0 l/m 2 min 0 min 496 W/m 9,7 km/h (2 Bft) 97,83 %
26.05.2023 09:26 12,8 C 18,3 C 10,6 C 79 % 1029,9 hPa 0,0 l/m 2 min 0 min 503 W/m 12,9 km/h (3 Bft) 93,62 %
26.05.2023 09:28 12,9 C 17,8 C 10,6 C 78 % 1029,9 hPa 0,0 l/m 2 min 0 min 516 W/m 16,1 km/h (3 Bft) 97,87 %
26.05.2023 09:30 13,1 C 18,3 C 10,6 C 78 % 1029,9 hPa 0,0 l/m 2 min 0 min 523 W/m 6,4 km/h (2 Bft) 95,74 %
26.05.2023 09:32 13,2 C 18,3 C 11,1 C 78 % 1029,9 hPa 0,0 l/m 2 min 0 min 527 W/m 6,4 km/h (2 Bft) 97,87 %
26.05.2023 09:34 13,4 C 18,3 C 11,1 C 77 % 1029,9 hPa 0,0 l/m 2 min 0 min 536 W/m 16,1 km/h (3 Bft) 97,87 %
26.05.2023 09:36 13,4 C 18,3 C 11,1 C 76 % 1029,9 hPa 0,0 l/m 2 min 0 min 539 W/m 16,1 km/h (3 Bft) 97,87 %
26.05.2023 09:38 13,6 C 18,3 C 11,7 C 76 % 1029,9 hPa 0,0 l/m 2 min 0 min 544 W/m 16,1 km/h (3 Bft) 97,83 %
26.05.2023 09:40 13,6 C 18,3 C 11,7 C 76 % 1029,9 hPa 0,0 l/m 2 min 0 min 548 W/m 19,3 km/h (3 Bft) 93,62 %
26.05.2023 09:42 13,7 C 18,3 C 11,7 C 75 % 1029,8 hPa 0,0 l/m 2 min 0 min 554 W/m 16,1 km/h (3 Bft) 97,87 %
26.05.2023 09:44 13,8 C 18,3 C 11,7 C 75 % 1029,8 hPa 0,0 l/m 2 min 0 min 560 W/m 12,9 km/h (3 Bft) 97,87 %
26.05.2023 09:46 13,9 C 18,3 C 11,7 C 75 % 1029,8 hPa 0,0 l/m 2 min 0 min 567 W/m 9,7 km/h (2 Bft) 97,87 %
26.05.2023 09:48 14,1 C 18,9 C 11,7 C 75 % 1029,8 hPa 0,0 l/m 2 min 0 min 571 W/m 9,7 km/h (2 Bft) 97,87 %
26.05.2023 09:50 14,2 C 18,3 C 12,2 C 74 % 1029,8 hPa 0,0 l/m 2 min 0 min 576 W/m 12,9 km/h (3 Bft) 93,62 %
26.05.2023 09:52 14,3 C 18,9 C 12,2 C 74 % 1029,7 hPa 0,0 l/m 2 min 0 min 582 W/m 16,1 km/h (3 Bft) 95,65 %
26.05.2023 09:54 14,3 C 18,3 C 12,2 C 74 % 1029,7 hPa 0,0 l/m 2 min 0 min 588 W/m 19,3 km/h (3 Bft) 95,74 %
26.05.2023 09:56 14,3 C 18,3 C 12,2 C 73 % 1029,7 hPa 0,0 l/m 2 min 0 min 593 W/m 12,9 km/h (3 Bft) 95,74 %
26.05.2023 09:58 14,3 C 18,3 C 12,2 C 73 % 1029,7 hPa 0,0 l/m 2 min 0 min 597 W/m 22,5 km/h (4 Bft) 95,74 %
26.05.2023 10:00 14,3 C 18,3 C 12,8 C 73 % 1029,7 hPa 0,0 l/m 2 min 0 min 602 W/m 6,4 km/h (2 Bft) 93,62 %
26.05.2023 10:02 14,3 C 18,3 C 12,8 C 73 % 1029,7 hPa 0,0 l/m 2 min 0 min 608 W/m 12,9 km/h (3 Bft) 93,62 %
26.05.2023 10:04 14,3 C 17,8 C 12,8 C 72 % 1029,7 hPa 0,0 l/m 2 min 0 min 613 W/m 25,7 km/h (4 Bft) 95,83 %
26.05.2023 10:06 14,3 C 17,8 C 12,8 C 72 % 1029,7 hPa 0,0 l/m 2 min 0 min 617 W/m 12,9 km/h (3 Bft) 95,65 %
26.05.2023 10:08 14,3 C 18,3 C 12,8 C 73 % 1029,7 hPa 0,0 l/m 2 min 0 min 619 W/m 12,9 km/h (3 Bft) 91,49 %
26.05.2023 10:10 14,3 C 18,9 C 12,8 C 73 % 1029,8 hPa 0,0 l/m 2 min 0 min 627 W/m 9,7 km/h (2 Bft) 93,62 %
26.05.2023 10:12 14,4 C 18,3 C 12,8 C 72 % 1029,8 hPa 0,0 l/m 2 min 0 min 631 W/m 16,1 km/h (3 Bft) 95,74 %
26.05.2023 10:14 14,3 C 16,7 C 12,8 C 71 % 1029,8 hPa 0,0 l/m 2 min 0 min 636 W/m 19,3 km/h (3 Bft) 95,74 %
26.05.2023 10:16 14,3 C 16,7 C 12,8 C 72 % 1029,9 hPa 0,0 l/m 2 min 0 min 641 W/m 12,9 km/h (3 Bft) 97,87 %
26.05.2023 10:18 14,3 C 16,7 C 13,3 C 72 % 1029,9 hPa 0,0 l/m 2 min 0 min 649 W/m 9,7 km/h (2 Bft) 93,62 %
26.05.2023 10:20 14,4 C 17,2 C 12,8 C 72 % 1029,9 hPa 0,0 l/m 2 min 0 min 652 W/m 12,9 km/h (3 Bft) 95,65 %
26.05.2023 10:22 14,5 C 17,8 C 13,3 C 72 % 1029,8 hPa 0,0 l/m 2 min 0 min 657 W/m 9,7 km/h (2 Bft) 93,62 %
26.05.2023 10:24 14,6 C 17,2 C 13,3 C 73 % 1029,8 hPa 0,0 l/m 2 min 0 min 659 W/m 19,3 km/h (3 Bft) 97,87 %
26.05.2023 10:26 14,7 C 17,2 C 13,3 C 72 % 1029,8 hPa 0,0 l/m 2 min 0 min 659 W/m 9,7 km/h (2 Bft) 97,87 %
26.05.2023 10:28 14,7 C 16,7 C 13,3 C 72 % 1029,8 hPa 0,0 l/m 2 min 0 min 660 W/m 12,9 km/h (3 Bft) 100,00 %
26.05.2023 10:30 14,7 C 16,7 C 13,3 C 71 % 1029,8 hPa 0,0 l/m 2 min 0 min 665 W/m 16,1 km/h (3 Bft) 95,74 %
26.05.2023 10:32 14,7 C 16,1 C 13,3 C 71 % 1029,8 hPa 0,0 l/m 2 min 0 min 674 W/m 9,7 km/h (2 Bft) 93,62 %
26.05.2023 10:34 14,7 C 16,7 C 12,8 C 71 % 1029,8 hPa 0,0 l/m 2 min 0 min 678 W/m 19,3 km/h (3 Bft) 95,65 %
26.05.2023 10:36 14,8 C 16,7 C 12,8 C 71 % 1029,8 hPa 0,0 l/m 2 min 0 min 678 W/m 16,1 km/h (3 Bft) 93,62 %
26.05.2023 10:38 14,8 C 16,1 C 12,8 C 71 % 1029,8 hPa 0,0 l/m 2 min 0 min 684 W/m 25,7 km/h (4 Bft) 95,74 %
26.05.2023 10:40 14,8 C 16,7 C 12,8 C 71 % 1029,8 hPa 0,0 l/m 2 min 0 min 695 W/m 12,9 km/h (3 Bft) 95,74 %
26.05.2023 10:42 14,8 C 16,7 C 12,8 C 71 % 1029,8 hPa 0,0 l/m 2 min 0 min 701 W/m 12,9 km/h (3 Bft) 89,36 %
26.05.2023 10:44 14,9 C 16,7 C 13,3 C 71 % 1029,9 hPa 0,0 l/m 2 min 0 min 709 W/m 12,9 km/h (3 Bft) 91,49 %
26.05.2023 10:46 14,9 C 16,7 C 13,3 C 70 % 1029,9 hPa 0,0 l/m 2 min 0 min 712 W/m 9,7 km/h (2 Bft) 95,65 %
26.05.2023 10:48 15,0 C 16,7 C 13,3 C 71 % 1029,9 hPa 0,0 l/m 2 min 0 min 717 W/m 12,9 km/h (3 Bft) 95,74 %
26.05.2023 10:50 15,1 C 17,2 C 12,8 C 71 % 1029,9 hPa 0,0 l/m 2 min 0 min 714 W/m 6,4 km/h (2 Bft) 95,74 %
26.05.2023 10:52 15,2 C 17,2 C 12,8 C 70 % 1029,8 hPa 0,0 l/m 2 min 0 min 724 W/m 12,9 km/h (3 Bft) 93,62 %
26.05.2023 10:54 15,3 C 17,2 C 12,8 C 69 % 1029,8 hPa 0,0 l/m 2 min 0 min 723 W/m 19,3 km/h (3 Bft) 95,74 %
26.05.2023 10:56 15,3 C 17,8 C 12,8 C 70 % 1029,8 hPa 0,0 l/m 2 min 0 min 728 W/m 12,9 km/h (3 Bft) 95,74 %
26.05.2023 10:58 15,4 C 17,8 C 12,8 C 69 % 1029,9 hPa 0,0 l/m 2 min 0 min 734 W/m 12,9 km/h (3 Bft) 93,62 %
26.05.2023 11:00 15,4 C 18,3 C 12,8 C 69 % 1029,8 hPa 0,0 l/m 2 min 0 min 741 W/m 19,3 km/h (3 Bft) 95,65 %
26.05.2023 11:02 15,4 C 17,8 C 12,8 C 69 % 1029,8 hPa 0,0 l/m 2 min 0 min 746 W/m 19,3 km/h (3 Bft) 95,74 %
26.05.2023 11:04 15,6 C 18,3 C 12,2 C 69 % 1029,7 hPa 0,0 l/m 2 min 0 min 752 W/m 12,9 km/h (3 Bft) 95,83 %
26.05.2023 11:06 15,6 C 18,9 C 12,2 C 69 % 1029,7 hPa 0,0 l/m 2 min 0 min 752 W/m 12,9 km/h (3 Bft) 95,74 %
26.05.2023 11:08 15,8 C 19,4 C 12,8 C 69 % 1029,7 hPa 0,0 l/m 2 min 0 min 760 W/m 12,9 km/h (3 Bft) 97,87 %
26.05.2023 11:10 15,8 C 18,9 C 12,8 C 69 % 1029,6 hPa 0,0 l/m 2 min 0 min 763 W/m 22,5 km/h (4 Bft) 93,62 %
26.05.2023 11:12 15,9 C 19,4 C 12,8 C 69 % 1029,7 hPa 0,0 l/m 2 min 0 min 766 W/m 16,1 km/h (3 Bft) 93,62 %
26.05.2023 11:14 16,1 C 20,0 C 12,8 C 68 % 1029,7 hPa 0,0 l/m 2 min 0 min 764 W/m 6,4 km/h (2 Bft) 97,83 %
26.05.2023 11:16 16,2 C 20,0 C 12,8 C 68 % 1029,8 hPa 0,0 l/m 2 min 0 min 775 W/m 12,9 km/h (3 Bft) 93,62 %
26.05.2023 11:18 16,2 C 20,6 C 12,8 C 68 % 1029,7 hPa 0,0 l/m 2 min 0 min 788 W/m 6,4 km/h (2 Bft) 97,87 %
26.05.2023 11:20 16,3 C 20,6 C 12,8 C 67 % 1029,7 hPa 0,0 l/m 2 min 0 min 777 W/m 12,9 km/h (3 Bft) 95,74 %
26.05.2023 11:22 16,4 C 20,0 C 12,8 C 67 % 1029,8 hPa 0,0 l/m 2 min 0 min 778 W/m 12,9 km/h (3 Bft) 95,74 %
26.05.2023 11:24 16,4 C 20,0 C 13,3 C 67 % 1029,7 hPa 0,0 l/m 2 min 0 min 789 W/m 12,9 km/h (3 Bft) 97,87 %
26.05.2023 11:26 16,5 C 20,6 C 13,9 C 67 % 1029,8 hPa 0,0 l/m 2 min 0 min 791 W/m 19,3 km/h (3 Bft) 97,83 %
26.05.2023 11:28 16,6 C 20,6 C 14,4 C 67 % 1029,8 hPa 0,0 l/m 2 min 0 min 791 W/m 16,1 km/h (3 Bft) 97,87 %
26.05.2023 11:30 16,6 C 21,1 C 13,9 C 66 % 1029,7 hPa 0,0 l/m 2 min 0 min 800 W/m 16,1 km/h (3 Bft) 97,87 %
26.05.2023 11:32 16,6 C 21,1 C 14,4 C 67 % 1029,8 hPa 0,0 l/m 2 min 0 min 802 W/m 16,1 km/h (3 Bft) 97,87 %
26.05.2023 11:34 16,6 C 20,6 C 15,0 C 65 % 1029,8 hPa 0,0 l/m 2 min 0 min 803 W/m 16,1 km/h (3 Bft) 100,00 %
26.05.2023 11:36 16,6 C 20,0 C 15,0 C 66 % 1029,8 hPa 0,0 l/m 2 min 0 min 809 W/m 19,3 km/h (3 Bft) 100,00 %
26.05.2023 11:38 16,6 C 20,6 C 15,6 C 66 % 1029,8 hPa 0,0 l/m 2 min 0 min 810 W/m 16,1 km/h (3 Bft) 100,00 %
26.05.2023 11:40 16,6 C 21,1 C 16,1 C 66 % 1029,9 hPa 0,0 l/m 2 min 0 min 814 W/m 12,9 km/h (3 Bft) 100,00 %
26.05.2023 11:42 16,7 C 21,7 C 16,1 C 66 % 1029,9 hPa 0,0 l/m 2 min 0 min 817 W/m 9,7 km/h (2 Bft) 97,83 %
26.05.2023 11:44 16,8 C 21,7 C 16,1 C 67 % 1029,9 hPa 0,0 l/m 2 min 0 min 819 W/m 9,7 km/h (2 Bft) 97,87 %
26.05.2023 11:46 16,9 C 21,7 C 16,7 C 66 % 1029,9 hPa 0,0 l/m 2 min 0 min 820 W/m 12,9 km/h (3 Bft) 100,00 %
26.05.2023 11:48 17,0 C 21,7 C 16,7 C 66 % 1029,9 hPa 0,0 l/m 2 min 0 min 825 W/m 9,7 km/h (2 Bft) 100,00 %
26.05.2023 11:50 17,1 C 21,7 C 16,1 C 66 % 1029,8 hPa 0,0 l/m 2 min 0 min 830 W/m 16,1 km/h (3 Bft) 100,00 %
26.05.2023 11:52 17,2 C 22,2 C 15,6 C 66 % 1029,9 hPa 0,0 l/m 2 min 0 min 836 W/m 19,3 km/h (3 Bft) 97,87 %
26.05.2023 11:54 17,2 C 22,2 C 15,0 C 65 % 1029,8 hPa 0,0 l/m 2 min 0 min 833 W/m 16,1 km/h (3 Bft) 95,83 %
26.05.2023 11:56 17,3 C 22,2 C 15,0 C 66 % 1029,9 hPa 0,0 l/m 2 min 0 min 838 W/m 6,4 km/h (2 Bft) 97,87 %
26.05.2023 11:58 17,3 C 22,2 C 15,0 C 65 % 1029,8 hPa 0,0 l/m 2 min 0 min 843 W/m 12,9 km/h (3 Bft) 97,87 %
26.05.2023 12:00 17,3 C 22,2 C 15,0 C 64 % 1029,8 hPa 0,0 l/m 2 min 0 min 844 W/m 16,1 km/h (3 Bft) 97,87 %
26.05.2023 12:02 17,3 C 22,8 C 14,4 C 65 % 1029,7 hPa 0,0 l/m 2 min 0 min 846 W/m 12,9 km/h (3 Bft) 100,00 %
26.05.2023 12:04 17,3 C 22,2 C 15,0 C 65 % 1029,8 hPa 0,0 l/m 2 min 0 min 851 W/m 22,5 km/h (4 Bft) 97,87 %
26.05.2023 12:07 17,3 C 22,2 C 15,0 C 65 % 1029,8 hPa 0,0 l/m 3 min 0 min 853 W/m 16,1 km/h (3 Bft) 97,87 %
26.05.2023 12:08 17,3 C 22,2 C 14,4 C 65 % 1029,8 hPa 0,0 l/m 1 min 0 min 854 W/m 16,1 km/h (3 Bft) 97,62 %
26.05.2023 12:10 17,4 C 22,2 C 14,4 C 64 % 1029,7 hPa 0,0 l/m 2 min 0 min 856 W/m 12,9 km/h (3 Bft) 97,87 %
26.05.2023 12:12 17,4 C 22,2 C 15,0 C 64 % 1029,7 hPa 0,0 l/m 2 min 0 min 856 W/m 19,3 km/h (3 Bft) 97,83 %
26.05.2023 12:14 17,4 C 22,2 C 15,0 C 65 % 1029,7 hPa 0,0 l/m 2 min 0 min 857 W/m 16,1 km/h (3 Bft) 97,87 %
26.05.2023 12:16 17,4 C 22,8 C 16,1 C 65 % 1029,7 hPa 0,0 l/m 2 min 0 min 860 W/m 22,5 km/h (4 Bft) 95,74 %
26.05.2023 12:18 17,5 C 22,8 C 17,2 C 65 % 1029,7 hPa 0,0 l/m 2 min 0 min 864 W/m 16,1 km/h (3 Bft) 95,74 %
26.05.2023 12:20 17,6 C 22,8 C 18,3 C 65 % 1029,6 hPa 0,0 l/m 2 min 0 min 864 W/m 12,9 km/h (3 Bft) 95,74 %
26.05.2023 12:22 17,6 C 22,8 C 17,8 C 64 % 1029,7 hPa 0,0 l/m 2 min 0 min 868 W/m 12,9 km/h (3 Bft) 97,87 %
26.05.2023 12:24 17,7 C 23,3 C 18,3 C 65 % 1029,7 hPa 0,0 l/m 2 min 0 min 874 W/m 9,7 km/h (2 Bft) 95,65 %
26.05.2023 12:26 17,7 C 22,8 C 18,3 C 64 % 1029,7 hPa 0,0 l/m 2 min 0 min 873 W/m 16,1 km/h (3 Bft) 100,00 %
26.05.2023 12:28 17,7 C 22,8 C 19,4 C 64 % 1029,6 hPa 0,0 l/m 2 min 0 min 876 W/m 12,9 km/h (3 Bft) 100,00 %
26.05.2023 12:30 17,7 C 23,3 C 19,4 C 64 % 1029,6 hPa 0,0 l/m 2 min 0 min 879 W/m 19,3 km/h (3 Bft) 100,00 %
26.05.2023 12:32 17,8 C 22,8 C 19,4 C 64 % 1029,6 hPa 0,0 l/m 2 min 0 min 882 W/m 25,7 km/h (4 Bft) 100,00 %
26.05.2023 12:34 17,7 C 22,8 C 18,9 C 64 % 1029,6 hPa 0,0 l/m 2 min 0 min 884 W/m 19,3 km/h (3 Bft) 100,00 %
26.05.2023 12:36 17,8 C 22,2 C 19,4 C 65 % 1029,6 hPa 0,0 l/m 2 min 0 min 885 W/m 16,1 km/h (3 Bft) 97,87 %
26.05.2023 12:38 17,8 C 22,8 C 18,9 C 64 % 1029,6 hPa 0,0 l/m 2 min 0 min 886 W/m 16,1 km/h (3 Bft) 100,00 %
26.05.2023 12:40 17,8 C 22,8 C 19,4 C 64 % 1029,6 hPa 0,0 l/m 2 min 0 min 889 W/m 16,1 km/h (3 Bft) 100,00 %
26.05.2023 12:42 17,9 C 22,8 C 20,0 C 64 % 1029,6 hPa 0,0 l/m 2 min 0 min 889 W/m 16,1 km/h (3 Bft) 100,00 %
26.05.2023 12:44 18,0 C 23,3 C 20,6 C 64 % 1029,6 hPa 0,0 l/m 2 min 0 min 894 W/m 12,9 km/h (3 Bft) 100,00 %
26.05.2023 12:46 18,0 C 23,3 C 19,4 C 63 % 1029,5 hPa 0,0 l/m 2 min 0 min 893 W/m 16,1 km/h (3 Bft) 100,00 %
26.05.2023 12:48 18,1 C 23,3 C 20,0 C 63 % 1029,6 hPa 0,0 l/m 2 min 0 min 893 W/m 16,1 km/h (3 Bft) 100,00 %
26.05.2023 12:50 18,1 C 23,3 C 20,0 C 64 % 1029,5 hPa 0,0 l/m 2 min 0 min 889 W/m 16,1 km/h (3 Bft) 100,00 %
26.05.2023 12:52 18,2 C 23,3 C 19,4 C 63 % 1029,5 hPa 0,0 l/m 2 min 0 min 891 W/m 16,1 km/h (3 Bft) 100,00 %
26.05.2023 12:54 18,2 C 23,3 C 20,6 C 63 % 1029,5 hPa 0,0 l/m 2 min 0 min 895 W/m 16,1 km/h (3 Bft) 100,00 %
26.05.2023 12:56 18,3 C 23,9 C 20,0 C 64 % 1029,5 hPa 0,0 l/m 2 min 0 min 898 W/m 19,3 km/h (3 Bft) 100,00 %
26.05.2023 12:58 18,4 C 23,9 C 20,0 C 64 % 1029,5 hPa 0,0 l/m 2 min 0 min 896 W/m 19,3 km/h (3 Bft) 100,00 %
26.05.2023 13:00 18,4 C 23,9 C 20,6 C 63 % 1029,5 hPa 0,0 l/m 2 min 0 min 901 W/m 25,7 km/h (4 Bft) 100,00 %
26.05.2023 13:02 18,4 C 23,3 C 20,6 C 62 % 1029,4 hPa 0,0 l/m 2 min 0 min 895 W/m 19,3 km/h (3 Bft) 100,00 %
26.05.2023 13:04 18,4 C 23,9 C 20,0 C 62 % 1029,5 hPa 0,0 l/m 2 min 0 min 900 W/m 19,3 km/h (3 Bft) 95,83 %
26.05.2023 13:06 18,6 C 23,9 C 21,1 C 62 % 1029,5 hPa 0,0 l/m 2 min 0 min 901 W/m 19,3 km/h (3 Bft) 97,83 %
26.05.2023 13:08 18,8 C 24,4 C 21,1 C 62 % 1029,5 hPa 0,0 l/m 2 min 0 min 904 W/m 22,5 km/h (4 Bft) 97,87 %
26.05.2023 13:10 18,8 C 23,9 C 21,1 C 61 % 1029,5 hPa 0,0 l/m 2 min 0 min 905 W/m 22,5 km/h (4 Bft) 97,87 %
26.05.2023 13:12 19,0 C 24,4 C 21,1 C 61 % 1029,5 hPa 0,0 l/m 2 min 0 min 906 W/m 12,9 km/h (3 Bft) 97,87 %
26.05.2023 13:14 19,1 C 25,6 C 20,6 C 62 % 1029,4 hPa 0,0 l/m 2 min 0 min 904 W/m 9,7 km/h (2 Bft) 95,74 %
26.05.2023 13:16 19,2 C 25,0 C 21,1 C 61 % 1029,4 hPa 0,0 l/m 2 min 0 min 910 W/m 16,1 km/h (3 Bft) 97,87 %
26.05.2023 13:18 19,3 C 26,1 C 20,6 C 61 % 1029,4 hPa 0,0 l/m 2 min 0 min 910 W/m 12,9 km/h (3 Bft) 97,83 %
26.05.2023 13:20 19,5 C 26,7 C 21,1 C 61 % 1029,4 hPa 0,0 l/m 2 min 0 min 908 W/m 12,9 km/h (3 Bft) 97,87 %
26.05.2023 13:22 19,7 C 25,6 C 21,7 C 61 % 1029,4 hPa 0,0 l/m 2 min 0 min 907 W/m 9,7 km/h (2 Bft) 97,87 %
26.05.2023 13:24 19,7 C 25,6 C 21,7 C 60 % 1029,4 hPa 0,0 l/m 2 min 0 min 906 W/m 19,3 km/h (3 Bft) 97,87 %
26.05.2023 13:26 19,8 C 25,0 C 21,7 C 60 % 1029,4 hPa 0,0 l/m 2 min 0 min 904 W/m 12,9 km/h (3 Bft) 97,87 %
26.05.2023 13:28 19,8 C 25,6 C 21,1 C 60 % 1029,4 hPa 0,0 l/m 2 min 0 min 902 W/m 12,9 km/h (3 Bft) 97,87 %
26.05.2023 13:30 19,8 C 25,6 C 21,1 C 59 % 1029,4 hPa 0,0 l/m 2 min 0 min 899 W/m 19,3 km/h (3 Bft) 95,74 %
26.05.2023 13:32 19,7 C 26,1 C 20,6 C 60 % 1029,4 hPa 0,0 l/m 2 min 0 min 892 W/m 19,3 km/h (3 Bft) 97,83 %
26.05.2023 13:34 19,7 C 26,1 C 21,1 C 60 % 1029,3 hPa 0,0 l/m 2 min 0 min 911 W/m 9,7 km/h (2 Bft) 97,87 %
26.05.2023 13:36 19,6 C 25,0 C 21,7 C 59 % 1029,3 hPa 0,0 l/m 2 min 0 min 900 W/m 9,7 km/h (2 Bft) 93,62 %
26.05.2023 13:38 19,5 C 25,0 C 21,7 C 59 % 1029,3 hPa 0,0 l/m 2 min 0 min 904 W/m 19,3 km/h (3 Bft) 93,18 %
26.05.2023 13:40 19,4 C 25,6 C 21,1 C 59 % 1029,3 hPa 0,0 l/m 2 min 0 min 909 W/m 12,9 km/h (3 Bft) 97,87 %
26.05.2023 13:42 19,4 C 25,6 C 21,1 C 60 % 1029,3 hPa 0,0 l/m 2 min 0 min 913 W/m 12,9 km/h (3 Bft) 93,62 %
26.05.2023 13:44 19,4 C 25,6 C 21,1 C 59 % 1029,3 hPa 0,0 l/m 2 min 0 min 915 W/m 19,3 km/h (3 Bft) 95,74 %
26.05.2023 13:46 19,3 C 25,0 C 21,1 C 59 % 1029,3 hPa 0,0 l/m 2 min 0 min 909 W/m 16,1 km/h (3 Bft) 97,87 %
26.05.2023 13:48 19,4 C 25,6 C 20,6 C 60 % 1029,3 hPa 0,0 l/m 2 min 0 min 887 W/m 12,9 km/h (3 Bft) 95,65 %
26.05.2023 13:50 19,6 C 26,7 C 19,4 C 61 % 1029,4 hPa 0,0 l/m 2 min 0 min 902 W/m 9,7 km/h (2 Bft) 97,87 %
26.05.2023 13:52 19,7 C 26,7 C 18,9 C 60 % 1029,3 hPa 0,0 l/m 2 min 0 min 905 W/m 12,9 km/h (3 Bft) 97,87 %
26.05.2023 13:54 19,8 C 26,1 C 17,8 C 57 % 1029,3 hPa 0,0 l/m 2 min 0 min 905 W/m 16,1 km/h (3 Bft) 93,62 %
26.05.2023 13:56 19,8 C 26,1 C 17,8 C 58 % 1029,3 hPa 0,0 l/m 2 min 0 min 910 W/m 12,9 km/h (3 Bft) 95,74 %
26.05.2023 13:58 19,8 C 26,1 C 17,2 C 57 % 1029,4 hPa 0,0 l/m 2 min 0 min 904 W/m 12,9 km/h (3 Bft) 97,87 %
26.05.2023 14:00 19,9 C 26,7 C 16,7 C 59 % 1029,4 hPa 0,0 l/m 2 min 0 min 910 W/m 19,3 km/h (3 Bft) 97,87 %
26.05.2023 14:02 20,0 C 27,2 C 16,1 C 58 % 1029,4 hPa 0,0 l/m 2 min 0 min 911 W/m 16,1 km/h (3 Bft) 95,65 %
26.05.2023 14:04 20,1 C 27,8 C 16,7 C 59 % 1029,4 hPa 0,0 l/m 2 min 0 min 909 W/m 12,9 km/h (3 Bft) 97,87 %
26.05.2023 14:06 20,2 C 28,3 C 16,1 C 57 % 1029,3 hPa 0,0 l/m 2 min 0 min 905 W/m 12,9 km/h (3 Bft) 98,31 %
26.05.2023 14:08 20,3 C 27,8 C 16,1 C 56 % 1029,2 hPa 0,0 l/m 2 min 0 min 908 W/m 12,9 km/h (3 Bft) 97,14 %
26.05.2023 14:10 20,3 C 27,2 C 16,1 C 56 % 1029,3 hPa 0,0 l/m 2 min 0 min 900 W/m 12,9 km/h (3 Bft) 97,87 %
26.05.2023 14:12 20,3 C 26,7 C 16,1 C 55 % 1029,3 hPa 0,0 l/m 2 min 0 min 903 W/m 22,5 km/h (4 Bft) 97,87 %
26.05.2023 14:14 20,3 C 26,7 C 16,1 C 56 % 1029,3 hPa 0,0 l/m 2 min 0 min 902 W/m 16,1 km/h (3 Bft) 97,83 %
26.05.2023 14:16 20,3 C 26,7 C 16,1 C 55 % 1029,3 hPa 0,0 l/m 2 min 0 min 902 W/m 19,3 km/h (3 Bft) 95,74 %
26.05.2023 14:18 20,3 C 26,7 C 16,1 C 56 % 1029,2 hPa 0,0 l/m 2 min 0 min 902 W/m 16,1 km/h (3 Bft) 97,87 %
26.05.2023 14:20 20,3 C 27,2 C 15,6 C 55 % 1029,3 hPa 0,0 l/m 2 min 0 min 899 W/m 12,9 km/h (3 Bft) 100,00 %
26.05.2023 14:22 20,3 C 27,8 C 16,1 C 54 % 1029,2 hPa 0,0 l/m 2 min 0 min 903 W/m 12,9 km/h (3 Bft) 100,00 %
26.05.2023 14:24 20,4 C 27,8 C 16,1 C 54 % 1029,2 hPa 0,0 l/m 2 min 0 min 906 W/m 22,5 km/h (4 Bft) 100,00 %
26.05.2023 14:26 20,4 C 27,2 C 15,6 C 55 % 1029,2 hPa 0,0 l/m 2 min 0 min 897 W/m 19,3 km/h (3 Bft) 97,87 %
26.05.2023 14:28 20,5 C 27,8 C 15,6 C 55 % 1029,2 hPa 0,0 l/m 2 min 0 min 894 W/m 16,1 km/h (3 Bft) 100,00 %
26.05.2023 14:30 20,5 C 27,8 C 15,6 C 53 % 1029,1 hPa 0,0 l/m 2 min 0 min 897 W/m 19,3 km/h (3 Bft) 100,00 %
26.05.2023 14:32 20,6 C 27,2 C 15,6 C 53 % 1029,2 hPa 0,0 l/m 2 min 0 min 895 W/m 16,1 km/h (3 Bft) 97,87 %
26.05.2023 14:34 20,5 C 27,8 C 15,6 C 52 % 1029,2 hPa 0,0 l/m 2 min 0 min 890 W/m 16,1 km/h (3 Bft) 97,87 %
26.05.2023 14:36 20,4 C 26,7 C 15,6 C 51 % 1029,2 hPa 0,0 l/m 2 min 0 min 888 W/m 16,1 km/h (3 Bft) 97,87 %
26.05.2023 14:38 20,3 C 25,0 C 15,6 C 51 % 1029,2 hPa 0,0 l/m 2 min 0 min 888 W/m 19,3 km/h (3 Bft) 100,00 %
26.05.2023 14:40 20,2 C 25,6 C 15,6 C 52 % 1029,2 hPa 0,0 l/m 2 min 0 min 888 W/m 19,3 km/h (3 Bft) 100,00 %
26.05.2023 14:42 20,1 C 25,6 C 15,6 C 51 % 1029,2 hPa 0,0 l/m 2 min 0 min 888 W/m 22,5 km/h (4 Bft) 95,65 %
26.05.2023 14:44 20,2 C 26,7 C 15,6 C 52 % 1029,1 hPa 0,0 l/m 2 min 0 min 881 W/m 12,9 km/h (3 Bft) 97,87 %
26.05.2023 14:46 20,3 C 27,2 C 15,6 C 52 % 1029,1 hPa 0,0 l/m 2 min 0 min 882 W/m 12,9 km/h (3 Bft) 100,00 %
26.05.2023 14:48 20,4 C 27,8 C 15,6 C 52 % 1029,2 hPa 0,0 l/m 2 min 0 min 885 W/m 19,3 km/h (3 Bft) 97,87 %
26.05.2023 14:50 20,4 C 26,1 C 15,6 C 52 % 1029,1 hPa 0,0 l/m 2 min 0 min 880 W/m 25,7 km/h (4 Bft) 100,00 %
26.05.2023 14:52 20,5 C 26,7 C 15,6 C 52 % 1029,0 hPa 0,0 l/m 2 min 0 min 879 W/m 12,9 km/h (3 Bft) 97,87 %
26.05.2023 14:54 20,6 C 26,7 C 15,6 C 53 % 1029,1 hPa 0,0 l/m 2 min 0 min 878 W/m 16,1 km/h (3 Bft) 100,00 %
26.05.2023 14:56 20,6 C 27,2 C 15,6 C 53 % 1029,0 hPa 0,0 l/m 2 min 0 min 870 W/m 16,1 km/h (3 Bft) 97,83 %
26.05.2023 14:58 20,7 C 27,2 C 16,1 C 53 % 1029,0 hPa 0,0 l/m 2 min 0 min 872 W/m 12,9 km/h (3 Bft) 97,87 %
26.05.2023 15:00 20,8 C 27,2 C 16,1 C 52 % 1029,0 hPa 0,0 l/m 2 min 0 min 868 W/m 22,5 km/h (4 Bft) 97,87 %
26.05.2023 15:02 20,8 C 26,7 C 16,1 C 51 % 1029,1 hPa 0,0 l/m 2 min 0 min 865 W/m 19,3 km/h (3 Bft) 97,87 %
26.05.2023 15:04 20,8 C 26,7 C 15,6 C 51 % 1029,0 hPa 0,0 l/m 2 min 0 min 868 W/m 16,1 km/h (3 Bft) 95,74 %
26.05.2023 15:06 20,8 C 27,2 C 16,1 C 51 % 1029,0 hPa 0,0 l/m 2 min 0 min 867 W/m 16,1 km/h (3 Bft) 98,28 %
26.05.2023 15:08 20,9 C 27,2 C 16,1 C 50 % 1029,0 hPa 0,0 l/m 2 min 0 min 868 W/m 19,3 km/h (3 Bft) 97,22 %
26.05.2023 15:10 20,8 C 25,6 C 15,6 C 48 % 1028,9 hPa 0,0 l/m 2 min 0 min 866 W/m 25,7 km/h (4 Bft) 93,48 %
26.05.2023 15:12 20,7 C 25,0 C 15,6 C 47 % 1028,9 hPa 0,0 l/m 2 min 0 min 861 W/m 19,3 km/h (3 Bft) 97,87 %
26.05.2023 15:14 20,7 C 25,6 C 15,6 C 49 % 1028,9 hPa 0,0 l/m 2 min 0 min 859 W/m 9,7 km/h (2 Bft) 97,87 %
26.05.2023 15:16 20,8 C 25,0 C 15,6 C 49 % 1028,9 hPa 0,0 l/m 2 min 0 min 855 W/m 16,1 km/h (3 Bft) 95,74 %
26.05.2023 15:18 20,7 C 25,6 C 16,1 C 49 % 1028,8 hPa 0,0 l/m 2 min 0 min 852 W/m 16,1 km/h (3 Bft) 97,87 %
26.05.2023 15:20 20,7 C 25,6 C 15,6 C 49 % 1028,9 hPa 0,0 l/m 2 min 0 min 856 W/m 22,5 km/h (4 Bft) 97,87 %
26.05.2023 15:22 20,7 C 25,0 C 15,6 C 48 % 1028,9 hPa 0,0 l/m 2 min 0 min 852 W/m 25,7 km/h (4 Bft) 97,83 %
26.05.2023 15:24 20,7 C 26,1 C 15,6 C 49 % 1028,8 hPa 0,0 l/m 2 min 0 min 849 W/m 12,9 km/h (3 Bft) 97,87 %
26.05.2023 15:26 20,7 C 26,7 C 15,6 C 48 % 1028,8 hPa 0,0 l/m 2 min 0 min 847 W/m 9,7 km/h (2 Bft) 97,87 %
26.05.2023 15:28 20,8 C 27,2 C 16,1 C 49 % 1028,8 hPa 0,0 l/m 2 min 0 min 840 W/m 19,3 km/h (3 Bft) 97,87 %
26.05.2023 15:30 20,9 C 26,7 C 16,1 C 48 % 1028,8 hPa 0,0 l/m 2 min 0 min 837 W/m 19,3 km/h (3 Bft) 97,87 %
26.05.2023 15:32 20,9 C 26,1 C 16,1 C 47 % 1028,8 hPa 0,0 l/m 2 min 0 min 841 W/m 12,9 km/h (3 Bft) 97,87 %
26.05.2023 15:34 20,9 C 26,1 C 16,1 C 47 % 1028,8 hPa 0,0 l/m 2 min 0 min 838 W/m 9,7 km/h (2 Bft) 97,87 %
26.05.2023 15:36 20,9 C 26,1 C 16,1 C 46 % 1028,7 hPa 0,0 l/m 2 min 0 min 834 W/m 16,1 km/h (3 Bft) 93,48 %
26.05.2023 15:38 21,0 C 26,1 C 16,1 C 47 % 1028,8 hPa 0,0 l/m 2 min 0 min 828 W/m 19,3 km/h (3 Bft) 93,62 %
26.05.2023 15:40 21,1 C 26,1 C 16,1 C 47 % 1028,7 hPa 0,0 l/m 2 min 0 min 826 W/m 19,3 km/h (3 Bft) 93,62 %
26.05.2023 15:42 20,9 C 26,1 C 16,1 C 46 % 1028,8 hPa 0,0 l/m 2 min 0 min 820 W/m 16,1 km/h (3 Bft) 95,74 %
26.05.2023 15:44 20,9 C 25,6 C 16,1 C 46 % 1028,7 hPa 0,0 l/m 2 min 0 min 819 W/m 9,7 km/h (2 Bft) 95,74 %
26.05.2023 15:46 20,8 C 25,6 C 15,6 C 46 % 1028,7 hPa 0,0 l/m 2 min 0 min 819 W/m 16,1 km/h (3 Bft) 95,74 %
26.05.2023 15:48 20,8 C 26,1 C 16,1 C 47 % 1028,7 hPa 0,0 l/m 2 min 0 min 812 W/m 16,1 km/h (3 Bft) 93,62 %
26.05.2023 15:50 20,9 C 26,1 C 16,1 C 46 % 1028,7 hPa 0,0 l/m 2 min 0 min 809 W/m 16,1 km/h (3 Bft) 91,30 %
26.05.2023 15:52 20,9 C 25,6 C 16,1 C 44 % 1028,7 hPa 0,0 l/m 2 min 0 min 807 W/m 16,1 km/h (3 Bft) 96,00 %
26.05.2023 15:54 21,1 C 26,1 C 16,1 C 45 % 1028,7 hPa 0,0 l/m 2 min 0 min 803 W/m 12,9 km/h (3 Bft) 95,74 %
26.05.2023 15:56 21,0 C 25,6 C 16,1 C 43 % 1028,7 hPa 0,0 l/m 2 min 0 min 799 W/m 22,5 km/h (4 Bft) 95,74 %
26.05.2023 15:58 20,9 C 25,6 C 16,1 C 44 % 1028,7 hPa 0,0 l/m 2 min 0 min 797 W/m 16,1 km/h (3 Bft) 95,74 %
26.05.2023 16:00 20,9 C 25,6 C 16,1 C 44 % 1028,6 hPa 0,0 l/m 2 min 0 min 792 W/m 19,3 km/h (3 Bft) 95,74 %
26.05.2023 16:02 20,9 C 25,6 C 16,1 C 44 % 1028,7 hPa 0,0 l/m 2 min 0 min 783 W/m 19,3 km/h (3 Bft) 97,83 %
26.05.2023 16:04 21,1 C 25,6 C 16,1 C 46 % 1028,6 hPa 0,0 l/m 2 min 0 min 779 W/m 6,4 km/h (2 Bft) 95,74 %
26.05.2023 16:06 21,1 C 26,1 C 16,1 C 45 % 1028,6 hPa 0,0 l/m 2 min 0 min 775 W/m 12,9 km/h (3 Bft) 91,67 %
26.05.2023 16:08 21,1 C 26,1 C 16,1 C 44 % 1028,6 hPa 0,0 l/m 2 min 0 min 772 W/m 12,9 km/h (3 Bft) 95,74 %
26.05.2023 16:10 21,2 C 26,1 C 16,1 C 45 % 1028,6 hPa 0,0 l/m 2 min 0 min 767 W/m 25,7 km/h (4 Bft) 95,74 %
26.05.2023 16:12 21,2 C 25,0 C 16,1 C 44 % 1028,6 hPa 0,0 l/m 2 min 0 min 764 W/m 22,5 km/h (4 Bft) 93,62 %
26.05.2023 16:14 21,1 C 23,9 C 16,1 C 43 % 1028,6 hPa 0,0 l/m 2 min 0 min 759 W/m 25,7 km/h (4 Bft) 95,74 %
26.05.2023 16:16 21,0 C 25,0 C 16,1 C 44 % 1028,6 hPa 0,0 l/m 2 min 0 min 753 W/m 12,9 km/h (3 Bft) 95,65 %
26.05.2023 16:18 21,0 C 25,6 C 16,1 C 44 % 1028,6 hPa 0,0 l/m 2 min 0 min 755 W/m 9,7 km/h (2 Bft) 95,92 %
26.05.2023 16:20 21,1 C 25,6 C 16,1 C 44 % 1028,5 hPa 0,0 l/m 2 min 0 min 751 W/m 22,5 km/h (4 Bft) 95,74 %
26.05.2023 16:22 21,1 C 25,6 C 16,1 C 44 % 1028,5 hPa 0,0 l/m 2 min 0 min 747 W/m 19,3 km/h (3 Bft) 97,14 %
26.05.2023 16:24 21,1 C 26,1 C 16,1 C 44 % 1028,5 hPa 0,0 l/m 2 min 0 min 738 W/m 12,9 km/h (3 Bft) 100,00 %
26.05.2023 16:26 21,1 C 25,6 C 16,7 C 43 % 1028,5 hPa 0,0 l/m 2 min 0 min 736 W/m 22,5 km/h (4 Bft) 100,00 %
26.05.2023 16:28 21,1 C 25,6 C 16,1 C 44 % 1028,5 hPa 0,0 l/m 2 min 0 min 728 W/m 12,9 km/h (3 Bft) 97,87 %
26.05.2023 16:30 21,1 C 25,6 C 16,1 C 43 % 1028,5 hPa 0,0 l/m 2 min 0 min 725 W/m 12,9 km/h (3 Bft) 100,00 %
26.05.2023 16:32 21,1 C 25,6 C 16,1 C 44 % 1028,5 hPa 0,0 l/m 2 min 0 min 723 W/m 12,9 km/h (3 Bft) 100,00 %
26.05.2023 16:34 21,1 C 26,1 C 16,7 C 44 % 1028,4 hPa 0,0 l/m 2 min 0 min 718 W/m 12,9 km/h (3 Bft) 97,83 %
26.05.2023 16:36 21,2 C 25,6 C 16,7 C 45 % 1028,5 hPa 0,0 l/m 2 min 0 min 718 W/m 19,3 km/h (3 Bft) 94,44 %
26.05.2023 16:38 21,2 C 25,0 C 16,7 C 44 % 1028,5 hPa 0,0 l/m 2 min 0 min 712 W/m 19,3 km/h (3 Bft) 100,00 %
26.05.2023 16:40 21,3 C 26,1 C 16,7 C 44 % 1028,5 hPa 0,0 l/m 2 min 0 min 710 W/m 19,3 km/h (3 Bft) 97,87 %
26.05.2023 16:42 21,3 C 26,1 C 16,7 C 44 % 1028,5 hPa 0,0 l/m 2 min 0 min 704 W/m 12,9 km/h (3 Bft) 100,00 %
26.05.2023 16:44 21,3 C 25,0 C 16,7 C 42 % 1028,6 hPa 0,0 l/m 2 min 0 min 697 W/m 25,7 km/h (4 Bft) 100,00 %
26.05.2023 16:46 21,3 C 25,6 C 17,2 C 42 % 1028,6 hPa 0,0 l/m 2 min 0 min 693 W/m 12,9 km/h (3 Bft) 97,87 %
26.05.2023 16:48 21,2 C 26,1 C 17,2 C 41 % 1028,5 hPa 0,0 l/m 2 min 0 min 689 W/m 19,3 km/h (3 Bft) 95,74 %
26.05.2023 16:50 21,1 C 25,6 C 16,7 C 41 % 1028,5 hPa 0,0 l/m 2 min 0 min 683 W/m 19,3 km/h (3 Bft) 97,87 %
26.05.2023 16:52 21,1 C 25,0 C 16,7 C 42 % 1028,5 hPa 0,0 l/m 2 min 0 min 680 W/m 16,1 km/h (3 Bft) 100,00 %
26.05.2023 16:54 20,9 C 25,0 C 16,7 C 42 % 1028,4 hPa 0,0 l/m 2 min 0 min 670 W/m 19,3 km/h (3 Bft) 100,00 %
26.05.2023 16:56 20,8 C 25,0 C 16,7 C 43 % 1028,4 hPa 0,0 l/m 2 min 0 min 669 W/m 22,5 km/h (4 Bft) 100,00 %
26.05.2023 16:58 20,8 C 25,0 C 16,7 C 43 % 1028,4 hPa 0,0 l/m 2 min 0 min 662 W/m 19,3 km/h (3 Bft) 100,00 %
26.05.2023 17:00 20,9 C 25,6 C 16,7 C 44 % 1028,4 hPa 0,0 l/m 2 min 0 min 655 W/m 12,9 km/h (3 Bft) 100,00 %
26.05.2023 17:02 20,9 C 25,6 C 17,2 C 44 % 1028,4 hPa 0,0 l/m 2 min 0 min 656 W/m 12,9 km/h (3 Bft) 97,87 %
26.05.2023 17:04 21,1 C 25,0 C 17,2 C 45 % 1028,4 hPa 0,0 l/m 2 min 0 min 650 W/m 19,3 km/h (3 Bft) 100,00 %
26.05.2023 17:06 21,1 C 25,6 C 17,2 C 44 % 1028,4 hPa 0,0 l/m 2 min 0 min 645 W/m 16,1 km/h (3 Bft) 100,00 %
26.05.2023 17:08 21,1 C 25,6 C 17,2 C 43 % 1028,3 hPa 0,0 l/m 2 min 0 min 637 W/m 22,5 km/h (4 Bft) 100,00 %
26.05.2023 17:10 21,2 C 25,6 C 17,2 C 44 % 1028,4 hPa 0,0 l/m 2 min 0 min 635 W/m 12,9 km/h (3 Bft) 100,00 %
26.05.2023 17:12 21,2 C 25,0 C 17,2 C 43 % 1028,4 hPa 0,0 l/m 2 min 0 min 629 W/m 12,9 km/h (3 Bft) 100,00 %
26.05.2023 17:14 21,2 C 25,6 C 17,2 C 42 % 1028,5 hPa 0,0 l/m 2 min 0 min 624 W/m 16,1 km/h (3 Bft) 97,87 %
26.05.2023 17:16 21,2 C 25,0 C 17,2 C 42 % 1028,4 hPa 0,0 l/m 2 min 0 min 620 W/m 12,9 km/h (3 Bft) 100,00 %
26.05.2023 17:18 21,2 C 25,6 C 17,2 C 42 % 1028,4 hPa 0,0 l/m 2 min 0 min 614 W/m 16,1 km/h (3 Bft) 100,00 %
26.05.2023 17:20 21,1 C 25,6 C 17,2 C 42 % 1028,4 hPa 0,0 l/m 2 min 0 min 611 W/m 19,3 km/h (3 Bft) 97,87 %
26.05.2023 17:22 21,2 C 25,6 C 17,2 C 43 % 1028,4 hPa 0,0 l/m 2 min 0 min 603 W/m 12,9 km/h (3 Bft) 100,00 %
26.05.2023 17:24 21,2 C 25,6 C 17,8 C 43 % 1028,4 hPa 0,0 l/m 2 min 0 min 598 W/m 16,1 km/h (3 Bft) 100,00 %
26.05.2023 17:26 21,2 C 25,0 C 17,2 C 43 % 1028,4 hPa 0,0 l/m 2 min 0 min 592 W/m 22,5 km/h (4 Bft) 100,00 %
26.05.2023 17:28 21,2 C 25,6 C 17,8 C 43 % 1028,3 hPa 0,0 l/m 2 min 0 min 589 W/m 6,4 km/h (2 Bft) 100,00 %
26.05.2023 17:30 21,3 C 26,1 C 17,8 C 43 % 1028,3 hPa 0,0 l/m 2 min 0 min 581 W/m 9,7 km/h (2 Bft) 100,00 %
26.05.2023 17:32 21,3 C 25,6 C 17,8 C 42 % 1028,3 hPa 0,0 l/m 2 min 0 min 577 W/m 19,3 km/h (3 Bft) 100,00 %
26.05.2023 17:34 21,4 C 25,6 C 17,8 C 43 % 1028,3 hPa 0,0 l/m 2 min 0 min 568 W/m 12,9 km/h (3 Bft) 97,87 %
26.05.2023 17:36 21,3 C 25,6 C 17,8 C 43 % 1028,3 hPa 0,0 l/m 2 min 0 min 563 W/m 16,1 km/h (3 Bft) 97,87 %
26.05.2023 17:38 21,3 C 25,6 C 17,8 C 43 % 1028,3 hPa 0,0 l/m 2 min 0 min 556 W/m 16,1 km/h (3 Bft) 100,00 %
26.05.2023 17:40 21,3 C 25,0 C 17,8 C 43 % 1028,3 hPa 0,0 l/m 2 min 0 min 551 W/m 19,3 km/h (3 Bft) 97,87 %
26.05.2023 17:42 21,3 C 25,0 C 17,8 C 43 % 1028,3 hPa 0,0 l/m 2 min 0 min 547 W/m 16,1 km/h (3 Bft) 100,00 %
26.05.2023 17:44 21,3 C 25,0 C 17,2 C 43 % 1028,3 hPa 0,0 l/m 2 min 0 min 540 W/m 12,9 km/h (3 Bft) 100,00 %
26.05.2023 17:46 21,2 C 24,4 C 17,8 C 44 % 1028,3 hPa 0,0 l/m 2 min 0 min 533 W/m 22,5 km/h (4 Bft) 100,00 %
26.05.2023 17:48 21,1 C 25,0 C 17,8 C 45 % 1028,3 hPa 0,0 l/m 2 min 0 min 526 W/m 19,3 km/h (3 Bft) 100,00 %
26.05.2023 17:50 21,1 C 25,6 C 17,8 C 45 % 1028,3 hPa 0,0 l/m 2 min 0 min 518 W/m 12,9 km/h (3 Bft) 97,87 %
26.05.2023 17:52 21,1 C 25,0 C 17,8 C 44 % 1028,2 hPa 0,0 l/m 2 min 0 min 513 W/m 16,1 km/h (3 Bft) 100,00 %
26.05.2023 17:54 21,1 C 25,0 C 17,8 C 45 % 1028,3 hPa 0,0 l/m 2 min 0 min 512 W/m 9,7 km/h (2 Bft) 100,00 %
26.05.2023 17:56 21,1 C 25,6 C 17,8 C 45 % 1028,3 hPa 0,0 l/m 2 min 0 min 506 W/m 9,7 km/h (2 Bft) 95,65 %
26.05.2023 17:58 21,1 C 25,0 C 17,8 C 45 % 1028,3 hPa 0,0 l/m 2 min 0 min 499 W/m 19,3 km/h (3 Bft) 97,87 %
26.05.2023 18:00 21,1 C 25,6 C 17,8 C 44 % 1028,3 hPa 0,0 l/m 2 min 0 min 488 W/m 9,7 km/h (2 Bft) 97,87 %
26.05.2023 18:02 21,0 C 24,4 C 17,2 C 44 % 1028,3 hPa 0,0 l/m 2 min 0 min 484 W/m 22,5 km/h (4 Bft) 93,62 %
26.05.2023 18:04 21,1 C 25,0 C 17,8 C 45 % 1028,2 hPa 0,0 l/m 2 min 0 min 481 W/m 12,9 km/h (3 Bft) 95,83 %
26.05.2023 18:07 20,9 C 25,0 C 17,2 C 45 % 1028,2 hPa 0,0 l/m 3 min 0 min 464 W/m 19,3 km/h (3 Bft) 95,83 %
26.05.2023 18:08 20,9 C 24,4 C 17,2 C 45 % 1028,2 hPa 0,0 l/m 1 min 0 min 470 W/m 19,3 km/h (3 Bft) 97,00 %
26.05.2023 18:10 20,8 C 25,0 C 17,8 C 45 % 1028,2 hPa 0,0 l/m 2 min 0 min 457 W/m 16,1 km/h (3 Bft) 97,87 %
26.05.2023 18:12 20,8 C 25,0 C 17,2 C 45 % 1028,2 hPa 0,0 l/m 2 min 0 min 453 W/m 16,1 km/h (3 Bft) 95,74 %
26.05.2023 18:14 20,8 C 25,0 C 17,2 C 45 % 1028,3 hPa 0,0 l/m 2 min 0 min 449 W/m 16,1 km/h (3 Bft) 93,62 %
26.05.2023 18:16 20,8 C 23,9 C 17,2 C 45 % 1028,2 hPa 0,0 l/m 2 min 0 min 444 W/m 12,9 km/h (3 Bft) 95,74 %
26.05.2023 18:18 20,7 C 25,0 C 17,2 C 46 % 1028,1 hPa 0,0 l/m 2 min 0 min 436 W/m 9,7 km/h (2 Bft) 89,36 %
26.05.2023 18:20 20,8 C 24,4 C 17,2 C 45 % 1028,2 hPa 0,0 l/m 2 min 0 min 429 W/m 25,7 km/h (4 Bft) 91,30 %
26.05.2023 18:22 20,8 C 24,4 C 17,2 C 46 % 1028,2 hPa 0,0 l/m 2 min 0 min 424 W/m 12,9 km/h (3 Bft) 93,62 %
26.05.2023 18:24 20,7 C 24,4 C 17,2 C 46 % 1028,1 hPa 0,0 l/m 2 min 0 min 416 W/m 12,9 km/h (3 Bft) 91,49 %
26.05.2023 18:26 20,7 C 23,9 C 16,7 C 46 % 1028,2 hPa 0,0 l/m 2 min 0 min 411 W/m 16,1 km/h (3 Bft) 89,36 %
26.05.2023 18:28 20,6 C 23,9 C 17,2 C 45 % 1028,1 hPa 0,0 l/m 2 min 0 min 404 W/m 12,9 km/h (3 Bft) 93,62 %
26.05.2023 18:30 20,6 C 24,4 C 17,2 C 44 % 1028,1 hPa 0,0 l/m 2 min 0 min 396 W/m 22,5 km/h (4 Bft) 93,62 %
26.05.2023 18:32 20,6 C 24,4 C 17,2 C 45 % 1028,2 hPa 0,0 l/m 2 min 0 min 390 W/m 9,7 km/h (2 Bft) 95,74 %
26.05.2023 18:34 20,6 C 24,4 C 17,2 C 45 % 1028,1 hPa 0,0 l/m 2 min 0 min 382 W/m 25,7 km/h (4 Bft) 95,65 %
26.05.2023 18:36 20,6 C 23,3 C 16,7 C 43 % 1028,1 hPa 0,0 l/m 2 min 0 min 378 W/m 19,3 km/h (3 Bft) 95,74 %
26.05.2023 18:38 20,5 C 23,9 C 17,2 C 44 % 1028,1 hPa 0,0 l/m 2 min 0 min 373 W/m 9,7 km/h (2 Bft) 95,74 %
26.05.2023 18:40 20,4 C 23,9 C 16,7 C 45 % 1028,2 hPa 0,0 l/m 2 min 0 min 365 W/m 16,1 km/h (3 Bft) 95,74 %
26.05.2023 18:42 20,4 C 23,9 C 16,7 C 45 % 1028,2 hPa 0,0 l/m 2 min 0 min 360 W/m 22,5 km/h (4 Bft) 93,62 %
26.05.2023 18:44 20,4 C 24,4 C 17,2 C 46 % 1028,1 hPa 0,0 l/m 2 min 0 min 356 W/m 12,9 km/h (3 Bft) 95,74 %
26.05.2023 18:46 20,4 C 24,4 C 17,2 C 47 % 1028,1 hPa 0,0 l/m 2 min 0 min 349 W/m 9,7 km/h (2 Bft) 95,74 %
26.05.2023 18:48 20,4 C 24,4 C 17,2 C 46 % 1028,1 hPa 0,0 l/m 2 min 0 min 340 W/m 9,7 km/h (2 Bft) 95,65 %
26.05.2023 18:50 20,4 C 23,9 C 17,2 C 47 % 1028,1 hPa 0,0 l/m 2 min 0 min 332 W/m 9,7 km/h (2 Bft) 93,62 %
26.05.2023 18:52 20,4 C 24,4 C 16,7 C 47 % 1028,1 hPa 0,0 l/m 2 min 0 min 328 W/m 12,9 km/h (3 Bft) 95,74 %
26.05.2023 18:54 20,4 C 24,4 C 16,7 C 47 % 1028,1 hPa 0,0 l/m 2 min 0 min 322 W/m 12,9 km/h (3 Bft) 95,74 %
26.05.2023 18:56 20,4 C 24,4 C 16,7 C 47 % 1028,0 hPa 0,0 l/m 2 min 0 min 314 W/m 9,7 km/h (2 Bft) 97,87 %
26.05.2023 18:58 20,4 C 23,9 C 16,7 C 48 % 1028,0 hPa 0,0 l/m 2 min 0 min 308 W/m 12,9 km/h (3 Bft) 91,49 %
26.05.2023 19:00 20,4 C 23,9 C 16,1 C 47 % 1028,1 hPa 0,0 l/m 2 min 0 min 302 W/m 16,1 km/h (3 Bft) 97,87 %
26.05.2023 19:02 20,3 C 23,3 C 16,1 C 47 % 1028,1 hPa 0,0 l/m 2 min 0 min 295 W/m 16,1 km/h (3 Bft) 97,83 %
26.05.2023 19:04 20,2 C 23,3 C 15,6 C 48 % 1028,1 hPa 0,0 l/m 2 min 0 min 290 W/m 16,1 km/h (3 Bft) 100,00 %
26.05.2023 19:06 20,1 C 22,8 C 15,6 C 48 % 1028,1 hPa 0,0 l/m 2 min 0 min 282 W/m 12,9 km/h (3 Bft) 100,00 %
26.05.2023 19:08 20,0 C 22,8 C 15,6 C 49 % 1028,1 hPa 0,0 l/m 2 min 0 min 274 W/m 12,9 km/h (3 Bft) 96,23 %
26.05.2023 19:10 20,0 C 22,8 C 15,6 C 48 % 1028,1 hPa 0,0 l/m 2 min 0 min 269 W/m 22,5 km/h (4 Bft) 100,00 %
26.05.2023 19:12 20,0 C 22,8 C 15,0 C 49 % 1028,1 hPa 0,0 l/m 2 min 0 min 266 W/m 16,1 km/h (3 Bft) 100,00 %
26.05.2023 19:14 19,9 C 22,8 C 15,0 C 49 % 1028,1 hPa 0,0 l/m 2 min 0 min 259 W/m 9,7 km/h (2 Bft) 100,00 %
26.05.2023 19:16 19,8 C 22,2 C 15,0 C 49 % 1028,1 hPa 0,0 l/m 2 min 0 min 251 W/m 22,5 km/h (4 Bft) 100,00 %
26.05.2023 19:18 19,7 C 22,2 C 15,0 C 49 % 1028,1 hPa 0,0 l/m 2 min 0 min 245 W/m 12,9 km/h (3 Bft) 100,00 %
26.05.2023 19:20 19,6 C 22,2 C 15,0 C 49 % 1028,1 hPa 0,0 l/m 2 min 0 min 240 W/m 12,9 km/h (3 Bft) 100,00 %
26.05.2023 19:22 19,5 C 21,7 C 15,0 C 49 % 1028,1 hPa 0,0 l/m 2 min 0 min 231 W/m 12,9 km/h (3 Bft) 100,00 %
26.05.2023 19:24 19,4 C 20,6 C 15,0 C 50 % 1028,2 hPa 0,0 l/m 2 min 0 min 227 W/m 12,9 km/h (3 Bft) 100,00 %
26.05.2023 19:26 19,3 C 19,4 C 15,0 C 50 % 1028,2 hPa 0,0 l/m 2 min 0 min 219 W/m 19,3 km/h (3 Bft) 100,00 %
26.05.2023 19:28 19,2 C 19,4 C 14,4 C 50 % 1028,2 hPa 0,0 l/m 2 min 0 min 214 W/m 12,9 km/h (3 Bft) 100,00 %
26.05.2023 19:30 19,1 C 18,9 C 14,4 C 50 % 1028,2 hPa 0,0 l/m 2 min 0 min 209 W/m 9,7 km/h (2 Bft) 95,74 %
26.05.2023 19:32 19,1 C 18,9 C 14,4 C 50 % 1028,2 hPa 0,0 l/m 2 min 0 min 202 W/m 19,3 km/h (3 Bft) 100,00 %
26.05.2023 19:34 19,0 C 18,9 C 14,4 C 52 % 1028,2 hPa 0,0 l/m 2 min 0 min 194 W/m 12,9 km/h (3 Bft) 100,00 %
26.05.2023 19:36 18,9 C 18,3 C 14,4 C 52 % 1028,2 hPa 0,0 l/m 2 min 0 min 187 W/m 12,9 km/h (3 Bft) 97,87 %
26.05.2023 19:38 18,9 C 18,3 C 14,4 C 52 % 1028,2 hPa 0,0 l/m 2 min 0 min 181 W/m 9,7 km/h (2 Bft) 100,00 %
26.05.2023 19:40 18,9 C 18,3 C 14,4 C 53 % 1028,1 hPa 0,0 l/m 2 min 0 min 177 W/m 16,1 km/h (3 Bft) 100,00 %
26.05.2023 19:42 18,8 C 18,3 C 14,4 C 53 % 1028,1 hPa 0,0 l/m 2 min 0 min 146 W/m 12,9 km/h (3 Bft) 100,00 %
26.05.2023 19:44 18,8 C 18,3 C 14,4 C 53 % 1028,2 hPa 0,0 l/m 0 min 0 min 98 W/m 9,7 km/h (2 Bft) 100,00 %
26.05.2023 19:46 18,8 C 18,3 C 14,4 C 53 % 1028,1 hPa 0,0 l/m 0 min 0 min 80 W/m 16,1 km/h (3 Bft) 100,00 %
26.05.2023 19:48 18,7 C 18,3 C 14,4 C 53 % 1028,1 hPa 0,0 l/m 0 min 0 min 77 W/m 3,2 km/h (1 Bft) 97,87 %
26.05.2023 19:50 18,7 C 18,3 C 14,4 C 53 % 1028,2 hPa 0,0 l/m 0 min 0 min 76 W/m 12,9 km/h (3 Bft) 100,00 %
26.05.2023 19:52 18,7 C 18,3 C 14,4 C 54 % 1028,1 hPa 0,0 l/m 0 min 0 min 74 W/m 16,1 km/h (3 Bft) 97,87 %
26.05.2023 19:54 18,6 C 17,8 C 14,4 C 54 % 1028,1 hPa 0,0 l/m 0 min 0 min 72 W/m 22,5 km/h (4 Bft) 100,00 %
26.05.2023 19:56 18,6 C 17,8 C 13,9 C 54 % 1028,1 hPa 0,0 l/m 0 min 0 min 71 W/m 19,3 km/h (3 Bft) 100,00 %
26.05.2023 19:58 18,6 C 17,8 C 13,9 C 54 % 1028,1 hPa 0,0 l/m 0 min 0 min 70 W/m 12,9 km/h (3 Bft) 100,00 %
26.05.2023 20:00 18,5 C 17,8 C 13,9 C 53 % 1028,2 hPa 0,0 l/m 0 min 0 min 69 W/m 12,9 km/h (3 Bft) 100,00 %
26.05.2023 20:02 18,4 C 17,8 C 13,9 C 54 % 1028,2 hPa 0,0 l/m 0 min 0 min 67 W/m 16,1 km/h (3 Bft) 97,87 %
26.05.2023 20:04 18,4 C 17,8 C 13,9 C 54 % 1028,2 hPa 0,0 l/m 0 min 0 min 65 W/m 12,9 km/h (3 Bft) 97,92 %
26.05.2023 20:06 18,3 C 17,8 C 13,9 C 54 % 1028,2 hPa 0,0 l/m 0 min 0 min 64 W/m 9,7 km/h (2 Bft) 97,87 %
26.05.2023 20:08 18,3 C 17,8 C 13,9 C 55 % 1028,2 hPa 0,0 l/m 0 min 0 min 63 W/m 9,7 km/h (2 Bft) 97,83 %
26.05.2023 20:10 18,2 C 17,8 C 13,9 C 55 % 1028,2 hPa 0,0 l/m 0 min 0 min 62 W/m 9,7 km/h (2 Bft) 97,87 %
26.05.2023 20:12 18,2 C 17,2 C 13,9 C 55 % 1028,2 hPa 0,0 l/m 0 min 0 min 60 W/m 12,9 km/h (3 Bft) 95,74 %
26.05.2023 20:14 18,1 C 17,2 C 13,9 C 56 % 1028,2 hPa 0,0 l/m 0 min 0 min 57 W/m 12,9 km/h (3 Bft) 93,62 %
26.05.2023 20:16 18,1 C 17,2 C 13,3 C 55 % 1028,1 hPa 0,0 l/m 0 min 0 min 56 W/m 12,9 km/h (3 Bft) 97,87 %
26.05.2023 20:18 18,0 C 17,2 C 13,3 C 55 % 1028,2 hPa 0,0 l/m 0 min 0 min 54 W/m 12,9 km/h (3 Bft) 97,87 %
26.05.2023 20:20 17,9 C 17,2 C 13,3 C 55 % 1028,2 hPa 0,0 l/m 0 min 0 min 53 W/m 9,7 km/h (2 Bft) 97,87 %
26.05.2023 20:22 17,9 C 17,2 C 13,3 C 55 % 1028,2 hPa 0,0 l/m 0 min 0 min 51 W/m 9,7 km/h (2 Bft) 95,65 %
26.05.2023 20:24 17,8 C 17,2 C 13,3 C 55 % 1028,2 hPa 0,0 l/m 0 min 0 min 49 W/m 12,9 km/h (3 Bft) 97,87 %
26.05.2023 20:26 17,8 C 16,7 C 13,3 C 55 % 1028,2 hPa 0,0 l/m 0 min 0 min 47 W/m 9,7 km/h (2 Bft) 95,74 %
26.05.2023 20:28 17,7 C 16,7 C 13,3 C 56 % 1028,3 hPa 0,0 l/m 0 min 0 min 46 W/m 9,7 km/h (2 Bft) 97,14 %
26.05.2023 20:30 17,6 C 16,7 C 13,3 C 55 % 1028,2 hPa 0,0 l/m 0 min 0 min 45 W/m 9,7 km/h (2 Bft) 97,87 %
26.05.2023 20:32 17,6 C 16,7 C 13,3 C 55 % 1028,3 hPa 0,0 l/m 0 min 0 min 43 W/m 9,7 km/h (2 Bft) 97,87 %
26.05.2023 20:34 17,6 C 16,7 C 13,3 C 54 % 1028,3 hPa 0,0 l/m 0 min 0 min 41 W/m 12,9 km/h (3 Bft) 97,87 %
26.05.2023 20:36 17,5 C 16,7 C 13,3 C 54 % 1028,3 hPa 0,0 l/m 0 min 0 min 40 W/m 19,3 km/h (3 Bft) 97,87 %
26.05.2023 20:38 17,4 C 16,7 C 12,8 C 55 % 1028,3 hPa 0,0 l/m 0 min 0 min 39 W/m 16,1 km/h (3 Bft) 97,83 %
26.05.2023 20:40 17,4 C 16,7 C 12,8 C 55 % 1028,3 hPa 0,0 l/m 0 min 0 min 37 W/m 9,7 km/h (2 Bft) 100,00 %
26.05.2023 20:42 17,4 C 16,7 C 12,8 C 55 % 1028,3 hPa 0,0 l/m 0 min 0 min 35 W/m 6,4 km/h (2 Bft) 97,87 %
26.05.2023 20:44 17,3 C 16,7 C 12,8 C 55 % 1028,3 hPa 0,0 l/m 0 min 0 min 34 W/m 6,4 km/h (2 Bft) 97,87 %
26.05.2023 20:46 17,3 C 16,1 C 12,8 C 56 % 1028,3 hPa 0,0 l/m 0 min 0 min 33 W/m 6,4 km/h (2 Bft) 100,00 %
26.05.2023 20:48 17,2 C 16,1 C 12,8 C 56 % 1028,3 hPa 0,0 l/m 0 min 0 min 31 W/m 3,2 km/h (1 Bft) 97,87 %
26.05.2023 20:50 17,2 C 16,1 C 12,8 C 56 % 1028,3 hPa 0,0 l/m 0 min 0 min 29 W/m 6,4 km/h (2 Bft) 97,87 %
26.05.2023 20:52 17,1 C 16,1 C 12,8 C 57 % 1028,3 hPa 0,0 l/m 0 min 0 min 27 W/m 6,4 km/h (2 Bft) 95,65 %
26.05.2023 20:54 17,1 C 16,1 C 12,2 C 57 % 1028,3 hPa 0,0 l/m 0 min 0 min 26 W/m 6,4 km/h (2 Bft) 97,87 %
26.05.2023 20:56 16,9 C 15,6 C 12,2 C 58 % 1028,3 hPa 0,0 l/m 0 min 0 min 25 W/m 9,7 km/h (2 Bft) 95,74 %
26.05.2023 20:58 16,9 C 15,6 C 12,2 C 58 % 1028,3 hPa 0,0 l/m 0 min 0 min 23 W/m 9,7 km/h (2 Bft) 93,62 %
26.05.2023 21:00 16,8 C 15,6 C 12,2 C 58 % 1028,3 hPa 0,0 l/m 0 min 0 min 22 W/m 19,3 km/h (3 Bft) 93,62 %
26.05.2023 21:02 16,8 C 15,6 C 12,2 C 58 % 1028,3 hPa 0,0 l/m 0 min 0 min 20 W/m 9,7 km/h (2 Bft) 93,62 %
26.05.2023 21:04 16,8 C 15,6 C 12,2 C 58 % 1028,4 hPa 0,0 l/m 0 min 0 min 19 W/m 9,7 km/h (2 Bft) 93,75 %
26.05.2023 21:06 16,7 C 15,6 C 12,2 C 59 % 1028,4 hPa 0,0 l/m 0 min 0 min 18 W/m 6,4 km/h (2 Bft) 94,83 %
26.05.2023 21:08 16,7 C 15,6 C 12,2 C 59 % 1028,4 hPa 0,0 l/m 0 min 0 min 16 W/m 12,9 km/h (3 Bft) 94,29 %
26.05.2023 21:10 16,6 C 15,6 C 12,2 C 59 % 1028,4 hPa 0,0 l/m 0 min 0 min 15 W/m 12,9 km/h (3 Bft) 93,62 %
26.05.2023 21:12 16,5 C 15,6 C 11,7 C 59 % 1028,4 hPa 0,0 l/m 0 min 0 min 14 W/m 6,4 km/h (2 Bft) 95,74 %
26.05.2023 21:14 16,4 C 15,6 C 11,7 C 59 % 1028,3 hPa 0,0 l/m 0 min 0 min 12 W/m 6,4 km/h (2 Bft) 95,74 %
26.05.2023 21:16 16,4 C 15,6 C 11,7 C 59 % 1028,3 hPa 0,0 l/m 0 min 0 min 12 W/m 6,4 km/h (2 Bft) 95,74 %
26.05.2023 21:18 16,3 C 15,0 C 11,7 C 59 % 1028,4 hPa 0,0 l/m 0 min 0 min 11 W/m 12,9 km/h (3 Bft) 93,62 %
26.05.2023 21:20 16,3 C 15,0 C 11,7 C 60 % 1028,4 hPa 0,0 l/m 0 min 0 min 10 W/m 6,4 km/h (2 Bft) 95,65 %
26.05.2023 21:22 16,2 C 15,0 C 11,7 C 60 % 1028,4 hPa 0,0 l/m 0 min 0 min 9 W/m 6,4 km/h (2 Bft) 93,62 %
26.05.2023 21:24 16,2 C 15,0 C 11,7 C 60 % 1028,4 hPa 0,0 l/m 0 min 0 min 8 W/m 6,4 km/h (2 Bft) 95,74 %
26.05.2023 21:26 16,1 C 15,0 C 11,7 C 60 % 1028,4 hPa 0,0 l/m 0 min 0 min 7 W/m 9,7 km/h (2 Bft) 93,62 %
26.05.2023 21:28 16,1 C 15,0 C 11,7 C 60 % 1028,4 hPa 0,0 l/m 0 min 0 min 6 W/m 12,9 km/h (3 Bft) 93,62 %
26.05.2023 21:30 16,0 C 15,0 C 11,1 C 60 % 1028,4 hPa 0,0 l/m 0 min 0 min 5 W/m 9,7 km/h (2 Bft) 95,74 %
26.05.2023 21:32 15,9 C 14,4 C 11,1 C 60 % 1028,4 hPa 0,0 l/m 0 min 0 min 5 W/m 9,7 km/h (2 Bft) 95,74 %
26.05.2023 21:34 15,9 C 14,4 C 11,1 C 61 % 1028,4 hPa 0,0 l/m 0 min 0 min 2 W/m 6,4 km/h (2 Bft) 95,65 %
26.05.2023 21:36 15,8 C 14,4 C 11,1 C 61 % 1028,4 hPa 0,0 l/m 0 min 0 min 0 W/m 9,7 km/h (2 Bft) 95,74 %
26.05.2023 21:38 15,8 C 14,4 C 11,1 C 61 % 1028,5 hPa 0,0 l/m 0 min 0 min 0 W/m 6,4 km/h (2 Bft) 95,74 %
26.05.2023 21:40 15,8 C 14,4 C 11,1 C 61 % 1028,5 hPa 0,0 l/m 0 min 0 min 0 W/m 6,4 km/h (2 Bft) 93,62 %
26.05.2023 21:42 15,7 C 14,4 C 11,1 C 62 % 1028,5 hPa 0,0 l/m 0 min 0 min 0 W/m 6,4 km/h (2 Bft) 98,21 %
26.05.2023 21:44 15,7 C 14,4 C 11,1 C 61 % 1028,5 hPa 0,0 l/m 0 min 0 min 0 W/m 6,4 km/h (2 Bft) 100,00 %
26.05.2023 21:46 15,6 C 14,4 C 11,1 C 62 % 1028,5 hPa 0,0 l/m 0 min 0 min 0 W/m 6,4 km/h (2 Bft) 97,87 %
26.05.2023 21:48 15,6 C 14,4 C 11,1 C 62 % 1028,5 hPa 0,0 l/m 0 min 0 min 0 W/m 9,7 km/h (2 Bft) 100,00 %
26.05.2023 21:50 15,5 C 14,4 C 11,1 C 62 % 1028,5 hPa 0,0 l/m 0 min 0 min 0 W/m 3,2 km/h (1 Bft) 95,74 %
26.05.2023 21:52 15,4 C 14,4 C 10,6 C 63 % 1028,6 hPa 0,0 l/m 0 min 0 min 0 W/m 6,4 km/h (2 Bft) 93,62 %
26.05.2023 21:54 15,4 C 13,9 C 10,6 C 63 % 1028,6 hPa 0,0 l/m 0 min 0 min 0 W/m 3,2 km/h (1 Bft) 100,00 %
26.05.2023 21:56 15,3 C 13,9 C 10,6 C 62 % 1028,6 hPa 0,0 l/m 0 min 0 min 0 W/m 12,9 km/h (3 Bft) 95,74 %
26.05.2023 21:58 15,3 C 13,9 C 10,6 C 62 % 1028,6 hPa 0,0 l/m 0 min 0 min 0 W/m 9,7 km/h (2 Bft) 95,65 %
26.05.2023 22:00 15,2 C 13,9 C 10,6 C 63 % 1028,7 hPa 0,0 l/m 0 min 0 min 0 W/m 3,2 km/h (1 Bft) 97,87 %
26.05.2023 22:02 15,2 C 13,9 C 10,6 C 63 % 1028,7 hPa 0,0 l/m 0 min 0 min 0 W/m 6,4 km/h (2 Bft) 91,49 %
26.05.2023 22:04 15,2 C 13,9 C 10,6 C 63 % 1028,7 hPa 0,0 l/m 0 min 0 min 0 W/m 6,4 km/h (2 Bft) 97,87 %
26.05.2023 22:06 15,1 C 13,9 C 10,6 C 63 % 1028,7 hPa 0,0 l/m 0 min 0 min 0 W/m 6,4 km/h (2 Bft) 97,87 %
26.05.2023 22:08 15,1 C 13,9 C 10,6 C 64 % 1028,8 hPa 0,0 l/m 0 min 0 min 0 W/m 3,2 km/h (1 Bft) 97,87 %
26.05.2023 22:10 15,1 C 13,9 C 10,6 C 64 % 1028,8 hPa 0,0 l/m 0 min 0 min 0 W/m 6,4 km/h (2 Bft) 95,65 %
26.05.2023 22:12 15,0 C 13,9 C 10,6 C 64 % 1028,7 hPa 0,0 l/m 0 min 0 min 0 W/m 3,2 km/h (1 Bft) 97,87 %
26.05.2023 22:14 14,9 C 13,9 C 10,6 C 64 % 1028,7 hPa 0,0 l/m 0 min 0 min 0 W/m 3,2 km/h (1 Bft) 95,74 %
26.05.2023 22:16 14,9 C 13,9 C 10,6 C 64 % 1028,8 hPa 0,0 l/m 0 min 0 min 0 W/m 6,4 km/h (2 Bft) 97,87 %
26.05.2023 22:18 14,9 C 13,9 C 10,6 C 64 % 1028,7 hPa 0,0 l/m 0 min 0 min 0 W/m 3,2 km/h (1 Bft) 95,83 %
26.05.2023 22:20 14,8 C 13,9 C 10,6 C 64 % 1028,7 hPa 0,0 l/m 0 min 0 min 0 W/m 3,2 km/h (1 Bft) 97,87 %
26.05.2023 22:22 14,8 C 13,9 C 10,6 C 64 % 1028,7 hPa 0,0 l/m 0 min 0 min 0 W/m 9,7 km/h (2 Bft) 97,87 %
26.05.2023 22:24 14,8 C 13,9 C 10,6 C 64 % 1028,7 hPa 0,0 l/m 0 min 0 min 0 W/m 3,2 km/h (1 Bft) 97,83 %
26.05.2023 22:26 14,8 C 13,9 C 10,6 C 64 % 1028,8 hPa 0,0 l/m 0 min 0 min 0 W/m 6,4 km/h (2 Bft) 100,00 %
26.05.2023 22:28 14,8 C 13,9 C 10,6 C 64 % 1028,7 hPa 0,0 l/m 0 min 0 min 0 W/m 6,4 km/h (2 Bft) 97,87 %
26.05.2023 22:30 14,8 C 13,9 C 10,0 C 65 % 1028,7 hPa 0,0 l/m 0 min 0 min 0 W/m 3,2 km/h (1 Bft) 100,00 %
26.05.2023 22:32 14,7 C 13,9 C 10,0 C 65 % 1028,7 hPa 0,0 l/m 0 min 0 min 0 W/m 6,4 km/h (2 Bft) 100,00 %
26.05.2023 22:34 14,7 C 13,9 C 10,6 C 65 % 1028,7 hPa 0,0 l/m 0 min 0 min 0 W/m 6,4 km/h (2 Bft) 100,00 %
26.05.2023 22:36 14,7 C 13,9 C 10,0 C 65 % 1028,7 hPa 0,0 l/m 0 min 0 min 0 W/m 6,4 km/h (2 Bft) 100,00 %
26.05.2023 22:38 14,7 C 13,9 C 10,0 C 65 % 1028,8 hPa 0,0 l/m 0 min 0 min 0 W/m 3,2 km/h (1 Bft) 100,00 %
26.05.2023 22:40 14,6 C 13,9 C 10,0 C 65 % 1028,8 hPa 0,0 l/m 0 min 0 min 0 W/m 6,4 km/h (2 Bft) 100,00 %
26.05.2023 22:42 14,6 C 13,9 C 10,0 C 65 % 1028,7 hPa 0,0 l/m 0 min 0 min 0 W/m 12,9 km/h (3 Bft) 100,00 %
26.05.2023 22:44 14,6 C 13,9 C 10,0 C 65 % 1028,8 hPa 0,0 l/m 0 min 0 min 0 W/m 12,9 km/h (3 Bft) 97,87 %
26.05.2023 22:46 14,6 C 13,9 C 10,0 C 65 % 1028,8 hPa 0,0 l/m 0 min 0 min 0 W/m 6,4 km/h (2 Bft) 95,74 %
26.05.2023 22:48 14,6 C 13,9 C 10,0 C 65 % 1028,8 hPa 0,0 l/m 0 min 0 min 0 W/m 9,7 km/h (2 Bft) 97,87 %
26.05.2023 22:50 14,5 C 13,9 C 10,0 C 65 % 1028,8 hPa 0,0 l/m 0 min 0 min 0 W/m 6,4 km/h (2 Bft) 100,00 %
26.05.2023 22:52 14,4 C 13,9 C 10,0 C 66 % 1028,8 hPa 0,0 l/m 0 min 0 min 0 W/m 6,4 km/h (2 Bft) 100,00 %
26.05.2023 22:54 14,4 C 13,9 C 10,0 C 66 % 1028,8 hPa 0,0 l/m 0 min 0 min 0 W/m 6,4 km/h (2 Bft) 100,00 %
26.05.2023 22:56 14,3 C 13,3 C 10,0 C 66 % 1028,8 hPa 0,0 l/m 0 min 0 min 0 W/m 6,4 km/h (2 Bft) 100,00 %
26.05.2023 22:58 14,3 C 13,3 C 10,0 C 66 % 1028,8 hPa 0,0 l/m 0 min 0 min 0 W/m 9,7 km/h (2 Bft) 100,00 %
26.05.2023 23:00 14,3 C 13,3 C 10,0 C 66 % 1028,8 hPa 0,0 l/m 0 min 0 min 0 W/m 6,4 km/h (2 Bft) 95,74 %
26.05.2023 23:02 14,3 C 13,3 C 10,0 C 67 % 1028,8 hPa 0,0 l/m 0 min 0 min 0 W/m 12,9 km/h (3 Bft) 100,00 %
26.05.2023 23:04 14,3 C 13,3 C 10,0 C 66 % 1028,8 hPa 0,0 l/m 0 min 0 min 0 W/m 6,4 km/h (2 Bft) 100,00 %
26.05.2023 23:06 14,3 C 13,3 C 10,0 C 67 % 1028,8 hPa 0,0 l/m 0 min 0 min 0 W/m 6,4 km/h (2 Bft) 100,00 %
26.05.2023 23:08 14,3 C 13,3 C 10,0 C 67 % 1028,8 hPa 0,0 l/m 0 min 0 min 0 W/m 6,4 km/h (2 Bft) 100,00 %
26.05.2023 23:10 14,3 C 13,3 C 10,0 C 67 % 1028,8 hPa 0,0 l/m 0 min 0 min 0 W/m 3,2 km/h (1 Bft) 97,87 %
26.05.2023 23:12 14,3 C 13,3 C 9,4 C 67 % 1028,7 hPa 0,0 l/m 0 min 0 min 0 W/m 6,4 km/h (2 Bft) 100,00 %
26.05.2023 23:14 14,3 C 13,3 C 9,4 C 67 % 1028,7 hPa 0,0 l/m 0 min 0 min 0 W/m 6,4 km/h (2 Bft) 100,00 %
26.05.2023 23:16 14,3 C 13,3 C 9,4 C 68 % 1028,8 hPa 0,0 l/m 0 min 0 min 0 W/m 6,4 km/h (2 Bft) 97,87 %
26.05.2023 23:18 14,2 C 13,3 C 9,4 C 68 % 1028,8 hPa 0,0 l/m 0 min 0 min 0 W/m 6,4 km/h (2 Bft) 97,87 %
26.05.2023 23:20 14,2 C 13,3 C 9,4 C 68 % 1028,8 hPa 0,0 l/m 0 min 0 min 0 W/m 3,2 km/h (1 Bft) 97,87 %
26.05.2023 23:22 14,2 C 13,3 C 9,4 C 69 % 1028,8 hPa 0,0 l/m 0 min 0 min 0 W/m 3,2 km/h (1 Bft) 97,83 %
26.05.2023 23:24 14,1 C 13,3 C 9,4 C 69 % 1028,8 hPa 0,0 l/m 0 min 0 min 0 W/m 3,2 km/h (1 Bft) 95,74 %
26.05.2023 23:26 14,1 C 12,8 C 9,4 C 69 % 1028,8 hPa 0,0 l/m 0 min 0 min 0 W/m 3,2 km/h (1 Bft) 97,87 %
26.05.2023 23:28 14,1 C 12,8 C 9,4 C 69 % 1028,9 hPa 0,0 l/m 0 min 0 min 0 W/m 3,2 km/h (1 Bft) 97,87 %
26.05.2023 23:30 14,1 C 12,8 C 9,4 C 69 % 1028,9 hPa 0,0 l/m 0 min 0 min 0 W/m 0,0 km/h (0 Bft) 95,74 %
26.05.2023 23:32 14,0 C 12,8 C 9,4 C 69 % 1028,9 hPa 0,0 l/m 0 min 0 min 0 W/m 3,2 km/h (1 Bft) 98,18 %
26.05.2023 23:34 14,0 C 12,8 C 9,4 C 69 % 1028,9 hPa 0,0 l/m 0 min 0 min 0 W/m 3,2 km/h (1 Bft) 95,74 %
26.05.2023 23:36 13,9 C 12,8 C 9,4 C 69 % 1028,9 hPa 0,0 l/m 0 min 0 min 0 W/m 6,4 km/h (2 Bft) 97,87 %
26.05.2023 23:38 13,9 C 12,8 C 9,4 C 70 % 1028,9 hPa 0,0 l/m 0 min 0 min 0 W/m 3,2 km/h (1 Bft) 95,74 %
26.05.2023 23:40 13,8 C 12,8 C 8,9 C 70 % 1028,9 hPa 0,0 l/m 0 min 0 min 0 W/m 3,2 km/h (1 Bft) 95,74 %
26.05.2023 23:42 13,8 C 12,8 C 8,9 C 70 % 1028,9 hPa 0,0 l/m 0 min 0 min 0 W/m 3,2 km/h (1 Bft) 95,74 %
26.05.2023 23:44 13,7 C 12,8 C 8,9 C 71 % 1028,8 hPa 0,0 l/m 0 min 0 min 0 W/m 6,4 km/h (2 Bft) 95,74 %
26.05.2023 23:46 13,7 C 12,2 C 8,9 C 71 % 1028,8 hPa 0,0 l/m 0 min 0 min 0 W/m 6,4 km/h (2 Bft) 95,65 %
26.05.2023 23:48 13,6 C 12,2 C 8,9 C 71 % 1028,8 hPa 0,0 l/m 0 min 0 min 0 W/m 6,4 km/h (2 Bft) 93,62 %
26.05.2023 23:50 13,6 C 12,2 C 8,9 C 71 % 1028,9 hPa 0,0 l/m 0 min 0 min 0 W/m 6,4 km/h (2 Bft) 95,74 %
26.05.2023 23:52 13,5 C 12,2 C 8,9 C 72 % 1028,9 hPa 0,0 l/m 0 min 0 min 0 W/m 9,7 km/h (2 Bft) 95,74 %
26.05.2023 23:54 13,5 C 12,2 C 8,9 C 72 % 1028,9 hPa 0,0 l/m 0 min 0 min 0 W/m 9,7 km/h (2 Bft) 97,87 %
26.05.2023 23:56 13,4 C 12,2 C 8,9 C 72 % 1028,8 hPa 0,0 l/m 0 min 0 min 0 W/m 6,4 km/h (2 Bft) 95,74 %
26.05.2023 23:58 13,4 C 12,2 C 8,9 C 72 % 1028,9 hPa 0,0 l/m 0 min 0 min 0 W/m 3,2 km/h (1 Bft) 97,37 %
_ Min-Zeit 05:36 04:40 05:34 16:48 00:00 - - - - 03:20 01:26
Minimum _ 8,6 C 7,8 C 4,4 C 41 % 1027,8 hPa - - - - 0,0 km/h (0 Bft) 55,56 %
_ Max-Zeit 17:34 14:06 13:22 05:36 09:08 00:00 12:07 00:00 13:44 06:07 00:12
Maximum _ 21,4 C 28,3 C 21,7 C 89 % 1029,9 hPa 0,0 l/m 3 min 0 min 915 W/m 25,7 km/h
O (4 Bft)
100,00 %
Durchschnitt _ 15,0 C 16,6 C 11,5 C 68 % 1028,8 hPa #0,0 l/m #11:06 h #0 min. 485 W/m 11,6 km/h (2 Bft) 97,16 %
© 2023 W. Hausmann